<?xml version="1.0" encoding="UTF-8" standalone="no" ?>
<gpx xmlns="http://www.topografix.com/GPX/1/1" xmlns:xsi="http://www.w3.org/2001/XMLSchema-instance" xsi:schemaLocation="http://www.topografix.com/GPX/1/1 http://www.topografix.com/GPX/1/1/gpx.xsd" version="1.1" creator="VisuGPX - https://www.visugpx.com">
  <metadata>
    <name>2013_09_26_Grand Sorbier</name>
    <desc><![CDATA[Randonnée de Chamrousse au Grand Sorbier via les Lacs Roberts ~ boris-petit.fr]]></desc>
  </metadata>
  <trk>
    <name><![CDATA[2013-09-26 20:11:25]]></name>
    <trkseg>
      <trkpt lat="45.12554" lon="5.87941">
        <ele>1669</ele>
        <time>2013-09-26T14:47:11Z</time>
      </trkpt>
      <trkpt lat="45.12554" lon="5.87941">
        <ele>1669</ele>
        <time>2013-09-26T14:47:12Z</time>
      </trkpt>
      <trkpt lat="45.12554" lon="5.87942">
        <ele>1669</ele>
        <time>2013-09-26T14:47:20Z</time>
      </trkpt>
      <trkpt lat="45.12582" lon="5.87915">
        <ele>1672</ele>
        <time>2013-09-26T14:47:27Z</time>
      </trkpt>
      <trkpt lat="45.12606" lon="5.87909">
        <ele>1678</ele>
        <time>2013-09-26T14:47:44Z</time>
      </trkpt>
      <trkpt lat="45.12614" lon="5.87903">
        <ele>1679</ele>
        <time>2013-09-26T14:47:51Z</time>
      </trkpt>
      <trkpt lat="45.12633" lon="5.87904">
        <ele>1682</ele>
        <time>2013-09-26T14:48:05Z</time>
      </trkpt>
      <trkpt lat="45.12639" lon="5.87903">
        <ele>1682</ele>
        <time>2013-09-26T14:48:09Z</time>
      </trkpt>
      <trkpt lat="45.12643" lon="5.87912">
        <ele>1683</ele>
        <time>2013-09-26T14:48:14Z</time>
      </trkpt>
      <trkpt lat="45.12647" lon="5.87944">
        <ele>1683</ele>
        <time>2013-09-26T14:48:29Z</time>
      </trkpt>
      <trkpt lat="45.12655" lon="5.8797">
        <ele>1683</ele>
        <time>2013-09-26T14:48:41Z</time>
      </trkpt>
      <trkpt lat="45.12671" lon="5.87985">
        <ele>1694</ele>
        <time>2013-09-26T14:48:55Z</time>
      </trkpt>
      <trkpt lat="45.12687" lon="5.87992">
        <ele>1696</ele>
        <time>2013-09-26T14:49:08Z</time>
      </trkpt>
      <trkpt lat="45.12694" lon="5.87995">
        <ele>1698</ele>
        <time>2013-09-26T14:49:13Z</time>
      </trkpt>
      <trkpt lat="45.12708" lon="5.88008">
        <ele>1701</ele>
        <time>2013-09-26T14:49:24Z</time>
      </trkpt>
      <trkpt lat="45.12722" lon="5.88018">
        <ele>1704</ele>
        <time>2013-09-26T14:49:36Z</time>
      </trkpt>
      <trkpt lat="45.12733" lon="5.88029">
        <ele>1706</ele>
        <time>2013-09-26T14:49:47Z</time>
      </trkpt>
      <trkpt lat="45.12736" lon="5.88034">
        <ele>1706</ele>
        <time>2013-09-26T14:49:51Z</time>
      </trkpt>
      <trkpt lat="45.12748" lon="5.88046">
        <ele>1706</ele>
        <time>2013-09-26T14:50:04Z</time>
      </trkpt>
      <trkpt lat="45.12757" lon="5.88058">
        <ele>1722</ele>
        <time>2013-09-26T14:50:15Z</time>
      </trkpt>
      <trkpt lat="45.12767" lon="5.88072">
        <ele>1722</ele>
        <time>2013-09-26T14:50:26Z</time>
      </trkpt>
      <trkpt lat="45.12771" lon="5.88078">
        <ele>1722</ele>
        <time>2013-09-26T14:50:31Z</time>
      </trkpt>
      <trkpt lat="45.1278" lon="5.88099">
        <ele>1728</ele>
        <time>2013-09-26T14:50:44Z</time>
      </trkpt>
      <trkpt lat="45.12785" lon="5.88119">
        <ele>1730</ele>
        <time>2013-09-26T14:50:56Z</time>
      </trkpt>
      <trkpt lat="45.1279" lon="5.88131">
        <ele>1731</ele>
        <time>2013-09-26T14:51:04Z</time>
      </trkpt>
      <trkpt lat="45.12794" lon="5.88135">
        <ele>1732</ele>
        <time>2013-09-26T14:51:08Z</time>
      </trkpt>
      <trkpt lat="45.12796" lon="5.88136">
        <ele>1732</ele>
        <time>2013-09-26T14:51:10Z</time>
      </trkpt>
      <trkpt lat="45.12807" lon="5.88146">
        <ele>1735</ele>
        <time>2013-09-26T14:51:22Z</time>
      </trkpt>
      <trkpt lat="45.12811" lon="5.88165">
        <ele>1737</ele>
        <time>2013-09-26T14:51:33Z</time>
      </trkpt>
      <trkpt lat="45.12816" lon="5.88183">
        <ele>1744</ele>
        <time>2013-09-26T14:51:49Z</time>
      </trkpt>
      <trkpt lat="45.12824" lon="5.88197">
        <ele>1745</ele>
        <time>2013-09-26T14:52:09Z</time>
      </trkpt>
      <trkpt lat="45.12838" lon="5.88214">
        <ele>1760</ele>
        <time>2013-09-26T14:52:24Z</time>
      </trkpt>
      <trkpt lat="45.12844" lon="5.8822">
        <ele>1761</ele>
        <time>2013-09-26T14:52:30Z</time>
      </trkpt>
      <trkpt lat="45.12852" lon="5.88233">
        <ele>1762</ele>
        <time>2013-09-26T14:52:40Z</time>
      </trkpt>
      <trkpt lat="45.12856" lon="5.88237">
        <ele>1763</ele>
        <time>2013-09-26T14:52:45Z</time>
      </trkpt>
      <trkpt lat="45.12863" lon="5.88248">
        <ele>1764</ele>
        <time>2013-09-26T14:52:55Z</time>
      </trkpt>
      <trkpt lat="45.12869" lon="5.88256">
        <ele>1772</ele>
        <time>2013-09-26T14:53:04Z</time>
      </trkpt>
      <trkpt lat="45.12874" lon="5.88267">
        <ele>1774</ele>
        <time>2013-09-26T14:53:13Z</time>
      </trkpt>
      <trkpt lat="45.12876" lon="5.88277">
        <ele>1775</ele>
        <time>2013-09-26T14:53:22Z</time>
      </trkpt>
      <trkpt lat="45.12878" lon="5.88288">
        <ele>1776</ele>
        <time>2013-09-26T14:53:31Z</time>
      </trkpt>
      <trkpt lat="45.12879" lon="5.88297">
        <ele>1777</ele>
        <time>2013-09-26T14:53:39Z</time>
      </trkpt>
      <trkpt lat="45.1288" lon="5.883">
        <ele>1777</ele>
        <time>2013-09-26T14:53:41Z</time>
      </trkpt>
      <trkpt lat="45.12879" lon="5.88304">
        <ele>1777</ele>
        <time>2013-09-26T14:53:45Z</time>
      </trkpt>
      <trkpt lat="45.12869" lon="5.8833">
        <ele>1776</ele>
        <time>2013-09-26T14:54:03Z</time>
      </trkpt>
      <trkpt lat="45.12856" lon="5.88357">
        <ele>1782</ele>
        <time>2013-09-26T14:54:20Z</time>
      </trkpt>
      <trkpt lat="45.12848" lon="5.88371">
        <ele>1783</ele>
        <time>2013-09-26T14:54:31Z</time>
      </trkpt>
      <trkpt lat="45.12847" lon="5.88375">
        <ele>1783</ele>
        <time>2013-09-26T14:54:37Z</time>
      </trkpt>
      <trkpt lat="45.12832" lon="5.88401">
        <ele>1780</ele>
        <time>2013-09-26T14:54:55Z</time>
      </trkpt>
      <trkpt lat="45.12823" lon="5.88418">
        <ele>1788</ele>
        <time>2013-09-26T14:55:08Z</time>
      </trkpt>
      <trkpt lat="45.12816" lon="5.88427">
        <ele>1790</ele>
        <time>2013-09-26T14:55:17Z</time>
      </trkpt>
      <trkpt lat="45.1281" lon="5.88439">
        <ele>1792</ele>
        <time>2013-09-26T14:55:26Z</time>
      </trkpt>
      <trkpt lat="45.12805" lon="5.88444">
        <ele>1793</ele>
        <time>2013-09-26T14:55:31Z</time>
      </trkpt>
      <trkpt lat="45.12786" lon="5.88465">
        <ele>1796</ele>
        <time>2013-09-26T14:55:49Z</time>
      </trkpt>
      <trkpt lat="45.12776" lon="5.88491">
        <ele>1799</ele>
        <time>2013-09-26T14:56:05Z</time>
      </trkpt>
      <trkpt lat="45.12769" lon="5.88506">
        <ele>1810</ele>
        <time>2013-09-26T14:56:16Z</time>
      </trkpt>
      <trkpt lat="45.12761" lon="5.8852">
        <ele>1811</ele>
        <time>2013-09-26T14:56:26Z</time>
      </trkpt>
      <trkpt lat="45.12755" lon="5.88538">
        <ele>1814</ele>
        <time>2013-09-26T14:56:38Z</time>
      </trkpt>
      <trkpt lat="45.1274" lon="5.88557">
        <ele>1808</ele>
        <time>2013-09-26T14:56:52Z</time>
      </trkpt>
      <trkpt lat="45.12736" lon="5.88586">
        <ele>1815</ele>
        <time>2013-09-26T14:57:08Z</time>
      </trkpt>
      <trkpt lat="45.12732" lon="5.88615">
        <ele>1814</ele>
        <time>2013-09-26T14:57:24Z</time>
      </trkpt>
      <trkpt lat="45.12726" lon="5.88651">
        <ele>1817</ele>
        <time>2013-09-26T14:57:42Z</time>
      </trkpt>
      <trkpt lat="45.12731" lon="5.8868">
        <ele>1821</ele>
        <time>2013-09-26T14:57:56Z</time>
      </trkpt>
      <trkpt lat="45.12733" lon="5.88696">
        <ele>1820</ele>
        <time>2013-09-26T14:58:10Z</time>
      </trkpt>
      <trkpt lat="45.12732" lon="5.88696">
        <ele>1820</ele>
        <time>2013-09-26T14:58:35Z</time>
      </trkpt>
      <trkpt lat="45.12739" lon="5.88723">
        <ele>1821</ele>
        <time>2013-09-26T14:58:54Z</time>
      </trkpt>
      <trkpt lat="45.12746" lon="5.88757">
        <ele>1826</ele>
        <time>2013-09-26T14:59:11Z</time>
      </trkpt>
      <trkpt lat="45.12755" lon="5.8879">
        <ele>1831</ele>
        <time>2013-09-26T14:59:28Z</time>
      </trkpt>
      <trkpt lat="45.12769" lon="5.88823">
        <ele>1829</ele>
        <time>2013-09-26T14:59:47Z</time>
      </trkpt>
      <trkpt lat="45.12772" lon="5.88828">
        <ele>1829</ele>
        <time>2013-09-26T14:59:50Z</time>
      </trkpt>
      <trkpt lat="45.1278" lon="5.88832">
        <ele>1829</ele>
        <time>2013-09-26T14:59:57Z</time>
      </trkpt>
      <trkpt lat="45.12782" lon="5.88834">
        <ele>1824</ele>
        <time>2013-09-26T15:00:13Z</time>
      </trkpt>
      <trkpt lat="45.12782" lon="5.88834">
        <ele>1824</ele>
        <time>2013-09-26T15:00:15Z</time>
      </trkpt>
      <trkpt lat="45.12781" lon="5.8886">
        <ele>1824</ele>
        <time>2013-09-26T15:00:27Z</time>
      </trkpt>
      <trkpt lat="45.12766" lon="5.88871">
        <ele>1825</ele>
        <time>2013-09-26T15:00:39Z</time>
      </trkpt>
      <trkpt lat="45.12758" lon="5.88872">
        <ele>1825</ele>
        <time>2013-09-26T15:00:55Z</time>
      </trkpt>
      <trkpt lat="45.12757" lon="5.88879">
        <ele>1825</ele>
        <time>2013-09-26T15:01:11Z</time>
      </trkpt>
      <trkpt lat="45.12757" lon="5.88888">
        <ele>1826</ele>
        <time>2013-09-26T15:01:15Z</time>
      </trkpt>
      <trkpt lat="45.12752" lon="5.88917">
        <ele>1830</ele>
        <time>2013-09-26T15:01:30Z</time>
      </trkpt>
      <trkpt lat="45.12749" lon="5.88924">
        <ele>1834</ele>
        <time>2013-09-26T15:01:35Z</time>
      </trkpt>
      <trkpt lat="45.12752" lon="5.88936">
        <ele>1829</ele>
        <time>2013-09-26T15:01:44Z</time>
      </trkpt>
      <trkpt lat="45.12749" lon="5.88947">
        <ele>1840</ele>
        <time>2013-09-26T15:01:54Z</time>
      </trkpt>
      <trkpt lat="45.12747" lon="5.88953">
        <ele>1841</ele>
        <time>2013-09-26T15:01:59Z</time>
      </trkpt>
      <trkpt lat="45.12742" lon="5.88962">
        <ele>1842</ele>
        <time>2013-09-26T15:02:08Z</time>
      </trkpt>
      <trkpt lat="45.12729" lon="5.88982">
        <ele>1845</ele>
        <time>2013-09-26T15:02:25Z</time>
      </trkpt>
      <trkpt lat="45.12725" lon="5.88988">
        <ele>1845</ele>
        <time>2013-09-26T15:02:29Z</time>
      </trkpt>
      <trkpt lat="45.12713" lon="5.89007">
        <ele>1856</ele>
        <time>2013-09-26T15:02:44Z</time>
      </trkpt>
      <trkpt lat="45.12712" lon="5.8901">
        <ele>1856</ele>
        <time>2013-09-26T15:02:47Z</time>
      </trkpt>
      <trkpt lat="45.12711" lon="5.8903">
        <ele>1858</ele>
        <time>2013-09-26T15:03:00Z</time>
      </trkpt>
      <trkpt lat="45.12719" lon="5.89054">
        <ele>1858</ele>
        <time>2013-09-26T15:03:16Z</time>
      </trkpt>
      <trkpt lat="45.12726" lon="5.89077">
        <ele>1858</ele>
        <time>2013-09-26T15:03:31Z</time>
      </trkpt>
      <trkpt lat="45.12725" lon="5.891">
        <ele>1869</ele>
        <time>2013-09-26T15:03:45Z</time>
      </trkpt>
      <trkpt lat="45.12729" lon="5.89116">
        <ele>1871</ele>
        <time>2013-09-26T15:03:56Z</time>
      </trkpt>
      <trkpt lat="45.12731" lon="5.89128">
        <ele>1872</ele>
        <time>2013-09-26T15:04:05Z</time>
      </trkpt>
      <trkpt lat="45.12731" lon="5.89129">
        <ele>1872</ele>
        <time>2013-09-26T15:04:06Z</time>
      </trkpt>
      <trkpt lat="45.12734" lon="5.89143">
        <ele>1873</ele>
        <time>2013-09-26T15:04:19Z</time>
      </trkpt>
      <trkpt lat="45.12739" lon="5.89158">
        <ele>1873</ele>
        <time>2013-09-26T15:04:29Z</time>
      </trkpt>
      <trkpt lat="45.1274" lon="5.89163">
        <ele>1873</ele>
        <time>2013-09-26T15:04:32Z</time>
      </trkpt>
      <trkpt lat="45.12743" lon="5.89172">
        <ele>1879</ele>
        <time>2013-09-26T15:04:38Z</time>
      </trkpt>
      <trkpt lat="45.12747" lon="5.89185">
        <ele>1884</ele>
        <time>2013-09-26T15:04:49Z</time>
      </trkpt>
      <trkpt lat="45.12753" lon="5.89197">
        <ele>1872</ele>
        <time>2013-09-26T15:04:57Z</time>
      </trkpt>
      <trkpt lat="45.12754" lon="5.89202">
        <ele>1873</ele>
        <time>2013-09-26T15:05:00Z</time>
      </trkpt>
      <trkpt lat="45.12749" lon="5.89209">
        <ele>1891</ele>
        <time>2013-09-26T15:05:11Z</time>
      </trkpt>
      <trkpt lat="45.12748" lon="5.8922">
        <ele>1893</ele>
        <time>2013-09-26T15:05:22Z</time>
      </trkpt>
      <trkpt lat="45.12748" lon="5.89228">
        <ele>1894</ele>
        <time>2013-09-26T15:05:31Z</time>
      </trkpt>
      <trkpt lat="45.12745" lon="5.8924">
        <ele>1896</ele>
        <time>2013-09-26T15:05:43Z</time>
      </trkpt>
      <trkpt lat="45.12741" lon="5.89242">
        <ele>1896</ele>
        <time>2013-09-26T15:06:04Z</time>
      </trkpt>
      <trkpt lat="45.1274" lon="5.89258">
        <ele>1904</ele>
        <time>2013-09-26T15:06:16Z</time>
      </trkpt>
      <trkpt lat="45.12741" lon="5.89262">
        <ele>1905</ele>
        <time>2013-09-26T15:06:20Z</time>
      </trkpt>
      <trkpt lat="45.12738" lon="5.89274">
        <ele>1908</ele>
        <time>2013-09-26T15:06:28Z</time>
      </trkpt>
      <trkpt lat="45.12737" lon="5.89288">
        <ele>1911</ele>
        <time>2013-09-26T15:06:39Z</time>
      </trkpt>
      <trkpt lat="45.12734" lon="5.89298">
        <ele>1913</ele>
        <time>2013-09-26T15:06:47Z</time>
      </trkpt>
      <trkpt lat="45.1273" lon="5.8931">
        <ele>1915</ele>
        <time>2013-09-26T15:06:57Z</time>
      </trkpt>
      <trkpt lat="45.12728" lon="5.8932">
        <ele>1916</ele>
        <time>2013-09-26T15:07:07Z</time>
      </trkpt>
      <trkpt lat="45.12728" lon="5.89321">
        <ele>1916</ele>
        <time>2013-09-26T15:07:08Z</time>
      </trkpt>
      <trkpt lat="45.12733" lon="5.89324">
        <ele>1916</ele>
        <time>2013-09-26T15:07:13Z</time>
      </trkpt>
      <trkpt lat="45.12737" lon="5.89332">
        <ele>1917</ele>
        <time>2013-09-26T15:07:20Z</time>
      </trkpt>
      <trkpt lat="45.12744" lon="5.89338">
        <ele>1922</ele>
        <time>2013-09-26T15:07:27Z</time>
      </trkpt>
      <trkpt lat="45.12753" lon="5.89347">
        <ele>1917</ele>
        <time>2013-09-26T15:07:34Z</time>
      </trkpt>
      <trkpt lat="45.12761" lon="5.89363">
        <ele>1917</ele>
        <time>2013-09-26T15:07:45Z</time>
      </trkpt>
      <trkpt lat="45.12767" lon="5.89374">
        <ele>1918</ele>
        <time>2013-09-26T15:07:52Z</time>
      </trkpt>
      <trkpt lat="45.12768" lon="5.89382">
        <ele>1918</ele>
        <time>2013-09-26T15:07:56Z</time>
      </trkpt>
      <trkpt lat="45.12771" lon="5.8939">
        <ele>1919</ele>
        <time>2013-09-26T15:08:01Z</time>
      </trkpt>
      <trkpt lat="45.12776" lon="5.89395">
        <ele>1919</ele>
        <time>2013-09-26T15:08:05Z</time>
      </trkpt>
      <trkpt lat="45.12786" lon="5.89407">
        <ele>1918</ele>
        <time>2013-09-26T15:08:15Z</time>
      </trkpt>
      <trkpt lat="45.12784" lon="5.89415">
        <ele>1919</ele>
        <time>2013-09-26T15:08:20Z</time>
      </trkpt>
      <trkpt lat="45.1278" lon="5.89426">
        <ele>1927</ele>
        <time>2013-09-26T15:08:26Z</time>
      </trkpt>
      <trkpt lat="45.12781" lon="5.89435">
        <ele>1927</ele>
        <time>2013-09-26T15:08:31Z</time>
      </trkpt>
      <trkpt lat="45.12783" lon="5.89441">
        <ele>1927</ele>
        <time>2013-09-26T15:08:34Z</time>
      </trkpt>
      <trkpt lat="45.12787" lon="5.89445">
        <ele>1927</ele>
        <time>2013-09-26T15:08:37Z</time>
      </trkpt>
      <trkpt lat="45.1279" lon="5.89455">
        <ele>1927</ele>
        <time>2013-09-26T15:08:41Z</time>
      </trkpt>
      <trkpt lat="45.12791" lon="5.89457">
        <ele>1927</ele>
        <time>2013-09-26T15:08:42Z</time>
      </trkpt>
      <trkpt lat="45.128" lon="5.89485">
        <ele>1927</ele>
        <time>2013-09-26T15:08:57Z</time>
      </trkpt>
      <trkpt lat="45.12799" lon="5.89498">
        <ele>1928</ele>
        <time>2013-09-26T15:09:03Z</time>
      </trkpt>
      <trkpt lat="45.12806" lon="5.89521">
        <ele>1937</ele>
        <time>2013-09-26T15:09:15Z</time>
      </trkpt>
      <trkpt lat="45.12812" lon="5.89543">
        <ele>1939</ele>
        <time>2013-09-26T15:09:27Z</time>
      </trkpt>
      <trkpt lat="45.12812" lon="5.89548">
        <ele>1939</ele>
        <time>2013-09-26T15:09:30Z</time>
      </trkpt>
      <trkpt lat="45.12817" lon="5.89565">
        <ele>1939</ele>
        <time>2013-09-26T15:09:41Z</time>
      </trkpt>
      <trkpt lat="45.12832" lon="5.89586">
        <ele>1937</ele>
        <time>2013-09-26T15:09:56Z</time>
      </trkpt>
      <trkpt lat="45.12843" lon="5.8961">
        <ele>1939</ele>
        <time>2013-09-26T15:10:11Z</time>
      </trkpt>
      <trkpt lat="45.12846" lon="5.89636">
        <ele>1943</ele>
        <time>2013-09-26T15:10:26Z</time>
      </trkpt>
      <trkpt lat="45.12848" lon="5.89639">
        <ele>1943</ele>
        <time>2013-09-26T15:10:28Z</time>
      </trkpt>
      <trkpt lat="45.12854" lon="5.8966">
        <ele>1945</ele>
        <time>2013-09-26T15:10:41Z</time>
      </trkpt>
      <trkpt lat="45.12861" lon="5.8967">
        <ele>1955</ele>
        <time>2013-09-26T15:10:50Z</time>
      </trkpt>
      <trkpt lat="45.12869" lon="5.89682">
        <ele>1955</ele>
        <time>2013-09-26T15:11:00Z</time>
      </trkpt>
      <trkpt lat="45.1288" lon="5.89696">
        <ele>1955</ele>
        <time>2013-09-26T15:11:12Z</time>
      </trkpt>
      <trkpt lat="45.12893" lon="5.89719">
        <ele>1956</ele>
        <time>2013-09-26T15:11:27Z</time>
      </trkpt>
      <trkpt lat="45.12907" lon="5.89744">
        <ele>1954</ele>
        <time>2013-09-26T15:11:43Z</time>
      </trkpt>
      <trkpt lat="45.12923" lon="5.89773">
        <ele>1946</ele>
        <time>2013-09-26T15:11:59Z</time>
      </trkpt>
      <trkpt lat="45.12937" lon="5.89797">
        <ele>1944</ele>
        <time>2013-09-26T15:12:13Z</time>
      </trkpt>
      <trkpt lat="45.12944" lon="5.89814">
        <ele>1945</ele>
        <time>2013-09-26T15:12:24Z</time>
      </trkpt>
      <trkpt lat="45.12955" lon="5.89845">
        <ele>1954</ele>
        <time>2013-09-26T15:12:41Z</time>
      </trkpt>
      <trkpt lat="45.12967" lon="5.89872">
        <ele>1954</ele>
        <time>2013-09-26T15:12:55Z</time>
      </trkpt>
      <trkpt lat="45.12974" lon="5.89881">
        <ele>1954</ele>
        <time>2013-09-26T15:13:03Z</time>
      </trkpt>
      <trkpt lat="45.12987" lon="5.89906">
        <ele>1952</ele>
        <time>2013-09-26T15:13:18Z</time>
      </trkpt>
      <trkpt lat="45.12997" lon="5.8993">
        <ele>1957</ele>
        <time>2013-09-26T15:13:31Z</time>
      </trkpt>
      <trkpt lat="45.13004" lon="5.89958">
        <ele>1939</ele>
        <time>2013-09-26T15:13:45Z</time>
      </trkpt>
      <trkpt lat="45.13006" lon="5.89966">
        <ele>1940</ele>
        <time>2013-09-26T15:13:49Z</time>
      </trkpt>
      <trkpt lat="45.13009" lon="5.90001">
        <ele>1949</ele>
        <time>2013-09-26T15:14:02Z</time>
      </trkpt>
      <trkpt lat="45.13012" lon="5.90019">
        <ele>1945</ele>
        <time>2013-09-26T15:14:11Z</time>
      </trkpt>
      <trkpt lat="45.13014" lon="5.90041">
        <ele>1943</ele>
        <time>2013-09-26T15:14:23Z</time>
      </trkpt>
      <trkpt lat="45.13013" lon="5.90066">
        <ele>1947</ele>
        <time>2013-09-26T15:14:43Z</time>
      </trkpt>
      <trkpt lat="45.13011" lon="5.90077">
        <ele>1951</ele>
        <time>2013-09-26T15:14:49Z</time>
      </trkpt>
      <trkpt lat="45.1301" lon="5.90086">
        <ele>1954</ele>
        <time>2013-09-26T15:14:55Z</time>
      </trkpt>
      <trkpt lat="45.13006" lon="5.90122">
        <ele>1951</ele>
        <time>2013-09-26T15:15:14Z</time>
      </trkpt>
      <trkpt lat="45.13004" lon="5.90135">
        <ele>1953</ele>
        <time>2013-09-26T15:15:26Z</time>
      </trkpt>
      <trkpt lat="45.13006" lon="5.90146">
        <ele>1955</ele>
        <time>2013-09-26T15:15:33Z</time>
      </trkpt>
      <trkpt lat="45.13003" lon="5.90165">
        <ele>1964</ele>
        <time>2013-09-26T15:15:46Z</time>
      </trkpt>
      <trkpt lat="45.13002" lon="5.90179">
        <ele>1965</ele>
        <time>2013-09-26T15:15:57Z</time>
      </trkpt>
      <trkpt lat="45.13005" lon="5.90187">
        <ele>1965</ele>
        <time>2013-09-26T15:16:03Z</time>
      </trkpt>
      <trkpt lat="45.13012" lon="5.90202">
        <ele>1966</ele>
        <time>2013-09-26T15:16:14Z</time>
      </trkpt>
      <trkpt lat="45.13019" lon="5.90221">
        <ele>1968</ele>
        <time>2013-09-26T15:16:28Z</time>
      </trkpt>
      <trkpt lat="45.13022" lon="5.90223">
        <ele>1968</ele>
        <time>2013-09-26T15:16:31Z</time>
      </trkpt>
      <trkpt lat="45.13035" lon="5.90246">
        <ele>1968</ele>
        <time>2013-09-26T15:16:51Z</time>
      </trkpt>
      <trkpt lat="45.13036" lon="5.90247">
        <ele>1968</ele>
        <time>2013-09-26T15:16:52Z</time>
      </trkpt>
      <trkpt lat="45.13047" lon="5.90264">
        <ele>1989</ele>
        <time>2013-09-26T15:17:13Z</time>
      </trkpt>
      <trkpt lat="45.1305" lon="5.90276">
        <ele>1991</ele>
        <time>2013-09-26T15:17:37Z</time>
      </trkpt>
      <trkpt lat="45.13049" lon="5.90271">
        <ele>1989</ele>
        <time>2013-09-26T15:18:04Z</time>
      </trkpt>
      <trkpt lat="45.13071" lon="5.90295">
        <ele>1993</ele>
        <time>2013-09-26T15:18:23Z</time>
      </trkpt>
      <trkpt lat="45.13078" lon="5.90308">
        <ele>1996</ele>
        <time>2013-09-26T15:18:32Z</time>
      </trkpt>
      <trkpt lat="45.13083" lon="5.9032">
        <ele>1999</ele>
        <time>2013-09-26T15:18:41Z</time>
      </trkpt>
      <trkpt lat="45.13087" lon="5.90335">
        <ele>2002</ele>
        <time>2013-09-26T15:18:52Z</time>
      </trkpt>
      <trkpt lat="45.1309" lon="5.9035">
        <ele>2003</ele>
        <time>2013-09-26T15:19:06Z</time>
      </trkpt>
      <trkpt lat="45.1309" lon="5.90356">
        <ele>2004</ele>
        <time>2013-09-26T15:19:09Z</time>
      </trkpt>
      <trkpt lat="45.13094" lon="5.90376">
        <ele>2009</ele>
        <time>2013-09-26T15:19:22Z</time>
      </trkpt>
      <trkpt lat="45.13092" lon="5.90387">
        <ele>2014</ele>
        <time>2013-09-26T15:19:30Z</time>
      </trkpt>
      <trkpt lat="45.13093" lon="5.90408">
        <ele>2027</ele>
        <time>2013-09-26T15:19:47Z</time>
      </trkpt>
      <trkpt lat="45.13099" lon="5.90426">
        <ele>2034</ele>
        <time>2013-09-26T15:20:02Z</time>
      </trkpt>
      <trkpt lat="45.13113" lon="5.90432">
        <ele>2028</ele>
        <time>2013-09-26T15:20:13Z</time>
      </trkpt>
      <trkpt lat="45.13115" lon="5.90465">
        <ele>2029</ele>
        <time>2013-09-26T15:20:37Z</time>
      </trkpt>
      <trkpt lat="45.13122" lon="5.90488">
        <ele>2030</ele>
        <time>2013-09-26T15:20:56Z</time>
      </trkpt>
      <trkpt lat="45.13128" lon="5.90516">
        <ele>2039</ele>
        <time>2013-09-26T15:21:15Z</time>
      </trkpt>
      <trkpt lat="45.13138" lon="5.9055">
        <ele>2039</ele>
        <time>2013-09-26T15:21:36Z</time>
      </trkpt>
      <trkpt lat="45.1314" lon="5.90562">
        <ele>2039</ele>
        <time>2013-09-26T15:21:46Z</time>
      </trkpt>
      <trkpt lat="45.1314" lon="5.90573">
        <ele>2038</ele>
        <time>2013-09-26T15:21:57Z</time>
      </trkpt>
      <trkpt lat="45.13141" lon="5.90582">
        <ele>2038</ele>
        <time>2013-09-26T15:22:07Z</time>
      </trkpt>
      <trkpt lat="45.13142" lon="5.90589">
        <ele>2044</ele>
        <time>2013-09-26T15:22:15Z</time>
      </trkpt>
      <trkpt lat="45.13145" lon="5.90595">
        <ele>2043</ele>
        <time>2013-09-26T15:22:25Z</time>
      </trkpt>
      <trkpt lat="45.13154" lon="5.90599">
        <ele>2039</ele>
        <time>2013-09-26T15:22:38Z</time>
      </trkpt>
      <trkpt lat="45.13157" lon="5.90609">
        <ele>2041</ele>
        <time>2013-09-26T15:22:49Z</time>
      </trkpt>
      <trkpt lat="45.13163" lon="5.90626">
        <ele>2042</ele>
        <time>2013-09-26T15:23:04Z</time>
      </trkpt>
      <trkpt lat="45.13162" lon="5.90644">
        <ele>2039</ele>
        <time>2013-09-26T15:23:22Z</time>
      </trkpt>
      <trkpt lat="45.13158" lon="5.9065">
        <ele>2038</ele>
        <time>2013-09-26T15:23:28Z</time>
      </trkpt>
      <trkpt lat="45.13158" lon="5.90653">
        <ele>2037</ele>
        <time>2013-09-26T15:23:30Z</time>
      </trkpt>
      <trkpt lat="45.13157" lon="5.90663">
        <ele>2033</ele>
        <time>2013-09-26T15:23:36Z</time>
      </trkpt>
      <trkpt lat="45.1316" lon="5.90677">
        <ele>2035</ele>
        <time>2013-09-26T15:23:43Z</time>
      </trkpt>
      <trkpt lat="45.1316" lon="5.90698">
        <ele>2044</ele>
        <time>2013-09-26T15:23:54Z</time>
      </trkpt>
      <trkpt lat="45.1316" lon="5.90701">
        <ele>2045</ele>
        <time>2013-09-26T15:23:56Z</time>
      </trkpt>
      <trkpt lat="45.13161" lon="5.9072">
        <ele>2044</ele>
        <time>2013-09-26T15:24:10Z</time>
      </trkpt>
      <trkpt lat="45.13163" lon="5.90739">
        <ele>2035</ele>
        <time>2013-09-26T15:24:24Z</time>
      </trkpt>
      <trkpt lat="45.13166" lon="5.9076">
        <ele>2032</ele>
        <time>2013-09-26T15:24:40Z</time>
      </trkpt>
      <trkpt lat="45.13169" lon="5.90778">
        <ele>2015</ele>
        <time>2013-09-26T15:24:55Z</time>
      </trkpt>
      <trkpt lat="45.13162" lon="5.90794">
        <ele>2044</ele>
        <time>2013-09-26T15:25:05Z</time>
      </trkpt>
      <trkpt lat="45.13162" lon="5.90797">
        <ele>2044</ele>
        <time>2013-09-26T15:25:07Z</time>
      </trkpt>
      <trkpt lat="45.13175" lon="5.90811">
        <ele>2017</ele>
        <time>2013-09-26T15:25:18Z</time>
      </trkpt>
      <trkpt lat="45.13176" lon="5.90824">
        <ele>2021</ele>
        <time>2013-09-26T15:25:35Z</time>
      </trkpt>
      <trkpt lat="45.13174" lon="5.90837">
        <ele>2025</ele>
        <time>2013-09-26T15:25:47Z</time>
      </trkpt>
      <trkpt lat="45.13186" lon="5.90857">
        <ele>2020</ele>
        <time>2013-09-26T15:26:02Z</time>
      </trkpt>
      <trkpt lat="45.13187" lon="5.90862">
        <ele>2019</ele>
        <time>2013-09-26T15:26:05Z</time>
      </trkpt>
      <trkpt lat="45.13187" lon="5.90876">
        <ele>2019</ele>
        <time>2013-09-26T15:26:18Z</time>
      </trkpt>
      <trkpt lat="45.1319" lon="5.90884">
        <ele>2019</ele>
        <time>2013-09-26T15:26:22Z</time>
      </trkpt>
      <trkpt lat="45.13191" lon="5.90906">
        <ele>2020</ele>
        <time>2013-09-26T15:26:34Z</time>
      </trkpt>
      <trkpt lat="45.13191" lon="5.90913">
        <ele>2021</ele>
        <time>2013-09-26T15:26:39Z</time>
      </trkpt>
      <trkpt lat="45.13188" lon="5.90941">
        <ele>2023</ele>
        <time>2013-09-26T15:26:55Z</time>
      </trkpt>
      <trkpt lat="45.13185" lon="5.9096">
        <ele>2023</ele>
        <time>2013-09-26T15:27:05Z</time>
      </trkpt>
      <trkpt lat="45.1318" lon="5.90996">
        <ele>2025</ele>
        <time>2013-09-26T15:27:25Z</time>
      </trkpt>
      <trkpt lat="45.13182" lon="5.91005">
        <ele>2025</ele>
        <time>2013-09-26T15:27:31Z</time>
      </trkpt>
      <trkpt lat="45.13189" lon="5.91022">
        <ele>2024</ele>
        <time>2013-09-26T15:27:41Z</time>
      </trkpt>
      <trkpt lat="45.13191" lon="5.91034">
        <ele>2023</ele>
        <time>2013-09-26T15:27:46Z</time>
      </trkpt>
      <trkpt lat="45.1319" lon="5.9104">
        <ele>2023</ele>
        <time>2013-09-26T15:27:49Z</time>
      </trkpt>
      <trkpt lat="45.13191" lon="5.91046">
        <ele>2023</ele>
        <time>2013-09-26T15:27:53Z</time>
      </trkpt>
      <trkpt lat="45.13194" lon="5.91063">
        <ele>2022</ele>
        <time>2013-09-26T15:28:03Z</time>
      </trkpt>
      <trkpt lat="45.13194" lon="5.91066">
        <ele>2022</ele>
        <time>2013-09-26T15:28:04Z</time>
      </trkpt>
      <trkpt lat="45.13194" lon="5.91074">
        <ele>2022</ele>
        <time>2013-09-26T15:28:07Z</time>
      </trkpt>
      <trkpt lat="45.13194" lon="5.9108">
        <ele>2022</ele>
        <time>2013-09-26T15:28:10Z</time>
      </trkpt>
      <trkpt lat="45.13192" lon="5.91092">
        <ele>2017</ele>
        <time>2013-09-26T15:28:16Z</time>
      </trkpt>
      <trkpt lat="45.13188" lon="5.91102">
        <ele>2017</ele>
        <time>2013-09-26T15:28:21Z</time>
      </trkpt>
      <trkpt lat="45.13181" lon="5.91118">
        <ele>2015</ele>
        <time>2013-09-26T15:28:31Z</time>
      </trkpt>
      <trkpt lat="45.13181" lon="5.91121">
        <ele>2015</ele>
        <time>2013-09-26T15:28:33Z</time>
      </trkpt>
      <trkpt lat="45.13178" lon="5.91126">
        <ele>2015</ele>
        <time>2013-09-26T15:28:39Z</time>
      </trkpt>
      <trkpt lat="45.1317" lon="5.91143">
        <ele>2012</ele>
        <time>2013-09-26T15:28:47Z</time>
      </trkpt>
      <trkpt lat="45.13164" lon="5.91151">
        <ele>2014</ele>
        <time>2013-09-26T15:28:52Z</time>
      </trkpt>
      <trkpt lat="45.13161" lon="5.91161">
        <ele>2011</ele>
        <time>2013-09-26T15:28:57Z</time>
      </trkpt>
      <trkpt lat="45.13159" lon="5.91164">
        <ele>2011</ele>
        <time>2013-09-26T15:28:59Z</time>
      </trkpt>
      <trkpt lat="45.13151" lon="5.91171">
        <ele>2006</ele>
        <time>2013-09-26T15:29:07Z</time>
      </trkpt>
      <trkpt lat="45.1315" lon="5.91187">
        <ele>2005</ele>
        <time>2013-09-26T15:29:18Z</time>
      </trkpt>
      <trkpt lat="45.13148" lon="5.91193">
        <ele>2005</ele>
        <time>2013-09-26T15:29:39Z</time>
      </trkpt>
      <trkpt lat="45.13144" lon="5.91194">
        <ele>2005</ele>
        <time>2013-09-26T15:29:52Z</time>
      </trkpt>
      <trkpt lat="45.13131" lon="5.91205">
        <ele>2004</ele>
        <time>2013-09-26T15:30:06Z</time>
      </trkpt>
      <trkpt lat="45.13122" lon="5.91206">
        <ele>2004</ele>
        <time>2013-09-26T15:30:14Z</time>
      </trkpt>
      <trkpt lat="45.1311" lon="5.91201">
        <ele>2006</ele>
        <time>2013-09-26T15:30:29Z</time>
      </trkpt>
      <trkpt lat="45.13108" lon="5.91202">
        <ele>2006</ele>
        <time>2013-09-26T15:30:32Z</time>
      </trkpt>
      <trkpt lat="45.13101" lon="5.91205">
        <ele>2005</ele>
        <time>2013-09-26T15:30:39Z</time>
      </trkpt>
      <trkpt lat="45.13092" lon="5.91213">
        <ele>2004</ele>
        <time>2013-09-26T15:30:47Z</time>
      </trkpt>
      <trkpt lat="45.1308" lon="5.91227">
        <ele>2010</ele>
        <time>2013-09-26T15:31:00Z</time>
      </trkpt>
      <trkpt lat="45.13076" lon="5.91238">
        <ele>2007</ele>
        <time>2013-09-26T15:31:15Z</time>
      </trkpt>
      <trkpt lat="45.13066" lon="5.91246">
        <ele>2009</ele>
        <time>2013-09-26T15:31:33Z</time>
      </trkpt>
      <trkpt lat="45.13064" lon="5.91247">
        <ele>2009</ele>
        <time>2013-09-26T15:31:34Z</time>
      </trkpt>
      <trkpt lat="45.13055" lon="5.91273">
        <ele>2006</ele>
        <time>2013-09-26T15:31:50Z</time>
      </trkpt>
      <trkpt lat="45.13051" lon="5.91299">
        <ele>2006</ele>
        <time>2013-09-26T15:32:04Z</time>
      </trkpt>
      <trkpt lat="45.13049" lon="5.91306">
        <ele>2006</ele>
        <time>2013-09-26T15:32:08Z</time>
      </trkpt>
      <trkpt lat="45.13045" lon="5.91322">
        <ele>2006</ele>
        <time>2013-09-26T15:32:18Z</time>
      </trkpt>
      <trkpt lat="45.13045" lon="5.91325">
        <ele>2006</ele>
        <time>2013-09-26T15:32:20Z</time>
      </trkpt>
      <trkpt lat="45.13042" lon="5.91351">
        <ele>2004</ele>
        <time>2013-09-26T15:32:34Z</time>
      </trkpt>
      <trkpt lat="45.13042" lon="5.91365">
        <ele>2004</ele>
        <time>2013-09-26T15:32:41Z</time>
      </trkpt>
      <trkpt lat="45.13043" lon="5.91378">
        <ele>2004</ele>
        <time>2013-09-26T15:32:47Z</time>
      </trkpt>
      <trkpt lat="45.13041" lon="5.91393">
        <ele>2004</ele>
        <time>2013-09-26T15:32:56Z</time>
      </trkpt>
      <trkpt lat="45.13041" lon="5.91397">
        <ele>2004</ele>
        <time>2013-09-26T15:32:58Z</time>
      </trkpt>
      <trkpt lat="45.13041" lon="5.91422">
        <ele>2004</ele>
        <time>2013-09-26T15:33:11Z</time>
      </trkpt>
      <trkpt lat="45.1304" lon="5.91452">
        <ele>2005</ele>
        <time>2013-09-26T15:33:25Z</time>
      </trkpt>
      <trkpt lat="45.13041" lon="5.91467">
        <ele>2005</ele>
        <time>2013-09-26T15:33:33Z</time>
      </trkpt>
      <trkpt lat="45.1304" lon="5.91471">
        <ele>2005</ele>
        <time>2013-09-26T15:33:35Z</time>
      </trkpt>
      <trkpt lat="45.13043" lon="5.91487">
        <ele>2005</ele>
        <time>2013-09-26T15:33:44Z</time>
      </trkpt>
      <trkpt lat="45.13043" lon="5.91505">
        <ele>2005</ele>
        <time>2013-09-26T15:33:53Z</time>
      </trkpt>
      <trkpt lat="45.13044" lon="5.91516">
        <ele>2005</ele>
        <time>2013-09-26T15:33:59Z</time>
      </trkpt>
      <trkpt lat="45.13049" lon="5.91541">
        <ele>2005</ele>
        <time>2013-09-26T15:34:12Z</time>
      </trkpt>
      <trkpt lat="45.13049" lon="5.91546">
        <ele>2005</ele>
        <time>2013-09-26T15:34:15Z</time>
      </trkpt>
      <trkpt lat="45.13049" lon="5.91565">
        <ele>2005</ele>
        <time>2013-09-26T15:34:27Z</time>
      </trkpt>
      <trkpt lat="45.13047" lon="5.91579">
        <ele>2005</ele>
        <time>2013-09-26T15:34:36Z</time>
      </trkpt>
      <trkpt lat="45.13043" lon="5.91597">
        <ele>2006</ele>
        <time>2013-09-26T15:34:51Z</time>
      </trkpt>
      <trkpt lat="45.1304" lon="5.91598">
        <ele>2006</ele>
        <time>2013-09-26T15:35:22Z</time>
      </trkpt>
      <trkpt lat="45.13042" lon="5.916">
        <ele>2006</ele>
        <time>2013-09-26T15:35:54Z</time>
      </trkpt>
      <trkpt lat="45.13045" lon="5.91599">
        <ele>2005</ele>
        <time>2013-09-26T15:36:29Z</time>
      </trkpt>
      <trkpt lat="45.13046" lon="5.91601">
        <ele>2005</ele>
        <time>2013-09-26T15:37:01Z</time>
      </trkpt>
      <trkpt lat="45.13046" lon="5.91602">
        <ele>2005</ele>
        <time>2013-09-26T15:37:35Z</time>
      </trkpt>
      <trkpt lat="45.13047" lon="5.91603">
        <ele>2005</ele>
        <time>2013-09-26T15:37:49Z</time>
      </trkpt>
      <trkpt lat="45.13049" lon="5.91632">
        <ele>2005</ele>
        <time>2013-09-26T15:38:06Z</time>
      </trkpt>
      <trkpt lat="45.13046" lon="5.91659">
        <ele>2005</ele>
        <time>2013-09-26T15:38:19Z</time>
      </trkpt>
      <trkpt lat="45.13051" lon="5.9167">
        <ele>2004</ele>
        <time>2013-09-26T15:38:23Z</time>
      </trkpt>
      <trkpt lat="45.13055" lon="5.9169">
        <ele>2004</ele>
        <time>2013-09-26T15:38:33Z</time>
      </trkpt>
      <trkpt lat="45.13056" lon="5.91706">
        <ele>2004</ele>
        <time>2013-09-26T15:38:45Z</time>
      </trkpt>
      <trkpt lat="45.13064" lon="5.91736">
        <ele>2002</ele>
        <time>2013-09-26T15:38:59Z</time>
      </trkpt>
      <trkpt lat="45.13065" lon="5.91743">
        <ele>2002</ele>
        <time>2013-09-26T15:39:03Z</time>
      </trkpt>
      <trkpt lat="45.13062" lon="5.91756">
        <ele>2001</ele>
        <time>2013-09-26T15:39:10Z</time>
      </trkpt>
      <trkpt lat="45.1305" lon="5.91778">
        <ele>2003</ele>
        <time>2013-09-26T15:39:23Z</time>
      </trkpt>
      <trkpt lat="45.13041" lon="5.918">
        <ele>2003</ele>
        <time>2013-09-26T15:39:37Z</time>
      </trkpt>
      <trkpt lat="45.13039" lon="5.91814">
        <ele>2003</ele>
        <time>2013-09-26T15:39:50Z</time>
      </trkpt>
      <trkpt lat="45.13046" lon="5.91842">
        <ele>2006</ele>
        <time>2013-09-26T15:40:05Z</time>
      </trkpt>
      <trkpt lat="45.13051" lon="5.91851">
        <ele>2006</ele>
        <time>2013-09-26T15:40:13Z</time>
      </trkpt>
      <trkpt lat="45.13061" lon="5.91868">
        <ele>2007</ele>
        <time>2013-09-26T15:40:23Z</time>
      </trkpt>
      <trkpt lat="45.1307" lon="5.9189">
        <ele>2008</ele>
        <time>2013-09-26T15:40:37Z</time>
      </trkpt>
      <trkpt lat="45.13076" lon="5.91898">
        <ele>2008</ele>
        <time>2013-09-26T15:40:44Z</time>
      </trkpt>
      <trkpt lat="45.13081" lon="5.91897">
        <ele>2007</ele>
        <time>2013-09-26T15:40:48Z</time>
      </trkpt>
      <trkpt lat="45.13101" lon="5.91906">
        <ele>2004</ele>
        <time>2013-09-26T15:41:03Z</time>
      </trkpt>
      <trkpt lat="45.13112" lon="5.91926">
        <ele>2010</ele>
        <time>2013-09-26T15:41:16Z</time>
      </trkpt>
      <trkpt lat="45.13115" lon="5.91932">
        <ele>2011</ele>
        <time>2013-09-26T15:41:20Z</time>
      </trkpt>
      <trkpt lat="45.13118" lon="5.91949">
        <ele>2012</ele>
        <time>2013-09-26T15:41:36Z</time>
      </trkpt>
      <trkpt lat="45.13129" lon="5.91968">
        <ele>2014</ele>
        <time>2013-09-26T15:41:57Z</time>
      </trkpt>
      <trkpt lat="45.13134" lon="5.91978">
        <ele>2014</ele>
        <time>2013-09-26T15:42:11Z</time>
      </trkpt>
      <trkpt lat="45.13133" lon="5.91989">
        <ele>2015</ele>
        <time>2013-09-26T15:42:24Z</time>
      </trkpt>
      <trkpt lat="45.13132" lon="5.91998">
        <ele>2015</ele>
        <time>2013-09-26T15:42:34Z</time>
      </trkpt>
      <trkpt lat="45.13134" lon="5.92004">
        <ele>2031</ele>
        <time>2013-09-26T15:42:48Z</time>
      </trkpt>
      <trkpt lat="45.13137" lon="5.9201">
        <ele>2031</ele>
        <time>2013-09-26T15:43:05Z</time>
      </trkpt>
      <trkpt lat="45.1314" lon="5.9202">
        <ele>2033</ele>
        <time>2013-09-26T15:43:19Z</time>
      </trkpt>
      <trkpt lat="45.13138" lon="5.92025">
        <ele>2034</ele>
        <time>2013-09-26T15:43:41Z</time>
      </trkpt>
      <trkpt lat="45.13142" lon="5.92028">
        <ele>2034</ele>
        <time>2013-09-26T15:43:52Z</time>
      </trkpt>
      <trkpt lat="45.13141" lon="5.92036">
        <ele>2036</ele>
        <time>2013-09-26T15:44:12Z</time>
      </trkpt>
      <trkpt lat="45.13141" lon="5.92041">
        <ele>2037</ele>
        <time>2013-09-26T15:44:35Z</time>
      </trkpt>
      <trkpt lat="45.13145" lon="5.92046">
        <ele>2038</ele>
        <time>2013-09-26T15:44:47Z</time>
      </trkpt>
      <trkpt lat="45.13151" lon="5.92053">
        <ele>2039</ele>
        <time>2013-09-26T15:44:56Z</time>
      </trkpt>
      <trkpt lat="45.1315" lon="5.92063">
        <ele>2041</ele>
        <time>2013-09-26T15:45:07Z</time>
      </trkpt>
      <trkpt lat="45.1315" lon="5.9207">
        <ele>2042</ele>
        <time>2013-09-26T15:45:17Z</time>
      </trkpt>
      <trkpt lat="45.13149" lon="5.92075">
        <ele>2043</ele>
        <time>2013-09-26T15:45:27Z</time>
      </trkpt>
      <trkpt lat="45.1315" lon="5.9208">
        <ele>2043</ele>
        <time>2013-09-26T15:45:50Z</time>
      </trkpt>
      <trkpt lat="45.1315" lon="5.9209">
        <ele>2061</ele>
        <time>2013-09-26T15:45:59Z</time>
      </trkpt>
      <trkpt lat="45.13149" lon="5.92097">
        <ele>2063</ele>
        <time>2013-09-26T15:46:10Z</time>
      </trkpt>
      <trkpt lat="45.1315" lon="5.92105">
        <ele>2066</ele>
        <time>2013-09-26T15:46:26Z</time>
      </trkpt>
      <trkpt lat="45.13151" lon="5.92106">
        <ele>2066</ele>
        <time>2013-09-26T15:46:27Z</time>
      </trkpt>
      <trkpt lat="45.13149" lon="5.9211">
        <ele>2069</ele>
        <time>2013-09-26T15:46:36Z</time>
      </trkpt>
      <trkpt lat="45.13144" lon="5.9211">
        <ele>2069</ele>
        <time>2013-09-26T15:46:55Z</time>
      </trkpt>
      <trkpt lat="45.1315" lon="5.9212">
        <ele>2072</ele>
        <time>2013-09-26T15:47:07Z</time>
      </trkpt>
      <trkpt lat="45.13154" lon="5.92124">
        <ele>2073</ele>
        <time>2013-09-26T15:47:17Z</time>
      </trkpt>
      <trkpt lat="45.13155" lon="5.9213">
        <ele>2074</ele>
        <time>2013-09-26T15:47:40Z</time>
      </trkpt>
      <trkpt lat="45.13151" lon="5.92137">
        <ele>2077</ele>
        <time>2013-09-26T15:47:52Z</time>
      </trkpt>
      <trkpt lat="45.13152" lon="5.92141">
        <ele>2078</ele>
        <time>2013-09-26T15:48:05Z</time>
      </trkpt>
      <trkpt lat="45.13147" lon="5.92147">
        <ele>2079</ele>
        <time>2013-09-26T15:48:20Z</time>
      </trkpt>
      <trkpt lat="45.13142" lon="5.9215">
        <ele>2080</ele>
        <time>2013-09-26T15:48:41Z</time>
      </trkpt>
      <trkpt lat="45.1314" lon="5.92155">
        <ele>2081</ele>
        <time>2013-09-26T15:48:50Z</time>
      </trkpt>
      <trkpt lat="45.13136" lon="5.92159">
        <ele>2081</ele>
        <time>2013-09-26T15:49:01Z</time>
      </trkpt>
      <trkpt lat="45.13133" lon="5.92166">
        <ele>2082</ele>
        <time>2013-09-26T15:49:18Z</time>
      </trkpt>
      <trkpt lat="45.1313" lon="5.9217">
        <ele>2108</ele>
        <time>2013-09-26T15:49:27Z</time>
      </trkpt>
      <trkpt lat="45.13124" lon="5.92175">
        <ele>2110</ele>
        <time>2013-09-26T15:49:38Z</time>
      </trkpt>
      <trkpt lat="45.13121" lon="5.92179">
        <ele>2110</ele>
        <time>2013-09-26T15:49:54Z</time>
      </trkpt>
      <trkpt lat="45.13119" lon="5.92189">
        <ele>2113</ele>
        <time>2013-09-26T15:50:12Z</time>
      </trkpt>
      <trkpt lat="45.13112" lon="5.92197">
        <ele>2115</ele>
        <time>2013-09-26T15:50:27Z</time>
      </trkpt>
      <trkpt lat="45.13112" lon="5.9221">
        <ele>2118</ele>
        <time>2013-09-26T15:50:43Z</time>
      </trkpt>
      <trkpt lat="45.13114" lon="5.92223">
        <ele>2121</ele>
        <time>2013-09-26T15:50:59Z</time>
      </trkpt>
      <trkpt lat="45.13115" lon="5.92228">
        <ele>2122</ele>
        <time>2013-09-26T15:51:12Z</time>
      </trkpt>
      <trkpt lat="45.1312" lon="5.92241">
        <ele>2124</ele>
        <time>2013-09-26T15:51:32Z</time>
      </trkpt>
      <trkpt lat="45.13125" lon="5.92252">
        <ele>2146</ele>
        <time>2013-09-26T15:51:52Z</time>
      </trkpt>
      <trkpt lat="45.1313" lon="5.9226">
        <ele>2147</ele>
        <time>2013-09-26T15:52:12Z</time>
      </trkpt>
      <trkpt lat="45.13131" lon="5.92279">
        <ele>2149</ele>
        <time>2013-09-26T15:52:33Z</time>
      </trkpt>
      <trkpt lat="45.13134" lon="5.92287">
        <ele>2150</ele>
        <time>2013-09-26T15:52:46Z</time>
      </trkpt>
      <trkpt lat="45.13135" lon="5.92299">
        <ele>2153</ele>
        <time>2013-09-26T15:52:59Z</time>
      </trkpt>
      <trkpt lat="45.13137" lon="5.92305">
        <ele>2154</ele>
        <time>2013-09-26T15:53:21Z</time>
      </trkpt>
      <trkpt lat="45.1314" lon="5.92316">
        <ele>2155</ele>
        <time>2013-09-26T15:53:36Z</time>
      </trkpt>
      <trkpt lat="45.13139" lon="5.92325">
        <ele>2156</ele>
        <time>2013-09-26T15:53:48Z</time>
      </trkpt>
      <trkpt lat="45.1314" lon="5.92333">
        <ele>2157</ele>
        <time>2013-09-26T15:54:02Z</time>
      </trkpt>
      <trkpt lat="45.13136" lon="5.92352">
        <ele>2177</ele>
        <time>2013-09-26T15:54:21Z</time>
      </trkpt>
      <trkpt lat="45.13137" lon="5.92359">
        <ele>2178</ele>
        <time>2013-09-26T15:54:41Z</time>
      </trkpt>
      <trkpt lat="45.13137" lon="5.92369">
        <ele>2180</ele>
        <time>2013-09-26T15:54:52Z</time>
      </trkpt>
      <trkpt lat="45.13141" lon="5.92375">
        <ele>2181</ele>
        <time>2013-09-26T15:55:04Z</time>
      </trkpt>
      <trkpt lat="45.13141" lon="5.92382">
        <ele>2183</ele>
        <time>2013-09-26T15:55:24Z</time>
      </trkpt>
      <trkpt lat="45.13142" lon="5.92395">
        <ele>2185</ele>
        <time>2013-09-26T15:55:37Z</time>
      </trkpt>
      <trkpt lat="45.13142" lon="5.92404">
        <ele>2187</ele>
        <time>2013-09-26T15:55:49Z</time>
      </trkpt>
      <trkpt lat="45.13146" lon="5.92415">
        <ele>2188</ele>
        <time>2013-09-26T15:56:04Z</time>
      </trkpt>
      <trkpt lat="45.13146" lon="5.92424">
        <ele>2202</ele>
        <time>2013-09-26T15:56:18Z</time>
      </trkpt>
      <trkpt lat="45.13152" lon="5.92428">
        <ele>2201</ele>
        <time>2013-09-26T15:56:33Z</time>
      </trkpt>
      <trkpt lat="45.13151" lon="5.92436">
        <ele>2203</ele>
        <time>2013-09-26T15:56:46Z</time>
      </trkpt>
      <trkpt lat="45.13154" lon="5.92439">
        <ele>2203</ele>
        <time>2013-09-26T15:56:57Z</time>
      </trkpt>
      <trkpt lat="45.13157" lon="5.92449">
        <ele>2205</ele>
        <time>2013-09-26T15:57:10Z</time>
      </trkpt>
      <trkpt lat="45.13161" lon="5.92452">
        <ele>2206</ele>
        <time>2013-09-26T15:57:26Z</time>
      </trkpt>
      <trkpt lat="45.13174" lon="5.92455">
        <ele>2199</ele>
        <time>2013-09-26T15:57:43Z</time>
      </trkpt>
      <trkpt lat="45.13184" lon="5.92466">
        <ele>2201</ele>
        <time>2013-09-26T15:58:00Z</time>
      </trkpt>
      <trkpt lat="45.13192" lon="5.92471">
        <ele>2201</ele>
        <time>2013-09-26T15:58:24Z</time>
      </trkpt>
      <trkpt lat="45.13197" lon="5.92487">
        <ele>2203</ele>
        <time>2013-09-26T15:58:41Z</time>
      </trkpt>
      <trkpt lat="45.13202" lon="5.92491">
        <ele>2204</ele>
        <time>2013-09-26T15:58:48Z</time>
      </trkpt>
      <trkpt lat="45.13206" lon="5.92497">
        <ele>2204</ele>
        <time>2013-09-26T15:59:08Z</time>
      </trkpt>
      <trkpt lat="45.13218" lon="5.92506">
        <ele>2220</ele>
        <time>2013-09-26T15:59:27Z</time>
      </trkpt>
      <trkpt lat="45.13227" lon="5.92515">
        <ele>2220</ele>
        <time>2013-09-26T15:59:40Z</time>
      </trkpt>
      <trkpt lat="45.13233" lon="5.92521">
        <ele>2221</ele>
        <time>2013-09-26T15:59:54Z</time>
      </trkpt>
      <trkpt lat="45.1324" lon="5.9253">
        <ele>2222</ele>
        <time>2013-09-26T16:00:14Z</time>
      </trkpt>
      <trkpt lat="45.13246" lon="5.92539">
        <ele>2224</ele>
        <time>2013-09-26T16:00:31Z</time>
      </trkpt>
      <trkpt lat="45.1325" lon="5.92542">
        <ele>2224</ele>
        <time>2013-09-26T16:00:42Z</time>
      </trkpt>
      <trkpt lat="45.13254" lon="5.92544">
        <ele>2234</ele>
        <time>2013-09-26T16:00:57Z</time>
      </trkpt>
      <trkpt lat="45.13259" lon="5.92549">
        <ele>2236</ele>
        <time>2013-09-26T16:01:19Z</time>
      </trkpt>
      <trkpt lat="45.13262" lon="5.92551">
        <ele>2236</ele>
        <time>2013-09-26T16:01:35Z</time>
      </trkpt>
      <trkpt lat="45.13263" lon="5.92549">
        <ele>2236</ele>
        <time>2013-09-26T16:01:38Z</time>
      </trkpt>
      <trkpt lat="45.13268" lon="5.92552">
        <ele>2237</ele>
        <time>2013-09-26T16:01:50Z</time>
      </trkpt>
      <trkpt lat="45.13272" lon="5.92555">
        <ele>2238</ele>
        <time>2013-09-26T16:02:08Z</time>
      </trkpt>
      <trkpt lat="45.13278" lon="5.92556">
        <ele>2239</ele>
        <time>2013-09-26T16:02:27Z</time>
      </trkpt>
      <trkpt lat="45.13282" lon="5.92554">
        <ele>2239</ele>
        <time>2013-09-26T16:02:40Z</time>
      </trkpt>
      <trkpt lat="45.13288" lon="5.92553">
        <ele>2240</ele>
        <time>2013-09-26T16:02:55Z</time>
      </trkpt>
      <trkpt lat="45.13295" lon="5.92554">
        <ele>2241</ele>
        <time>2013-09-26T16:03:07Z</time>
      </trkpt>
      <trkpt lat="45.13301" lon="5.92556">
        <ele>2243</ele>
        <time>2013-09-26T16:03:23Z</time>
      </trkpt>
      <trkpt lat="45.13306" lon="5.92565">
        <ele>2247</ele>
        <time>2013-09-26T16:03:34Z</time>
      </trkpt>
      <trkpt lat="45.13311" lon="5.9257">
        <ele>2250</ele>
        <time>2013-09-26T16:03:50Z</time>
      </trkpt>
      <trkpt lat="45.13313" lon="5.92578">
        <ele>2253</ele>
        <time>2013-09-26T16:04:12Z</time>
      </trkpt>
      <trkpt lat="45.13314" lon="5.92582">
        <ele>2254</ele>
        <time>2013-09-26T16:04:22Z</time>
      </trkpt>
      <trkpt lat="45.13315" lon="5.92571">
        <ele>2252</ele>
        <time>2013-09-26T16:04:32Z</time>
      </trkpt>
      <trkpt lat="45.13318" lon="5.92567">
        <ele>2252</ele>
        <time>2013-09-26T16:04:42Z</time>
      </trkpt>
      <trkpt lat="45.13316" lon="5.92562">
        <ele>2249</ele>
        <time>2013-09-26T16:05:00Z</time>
      </trkpt>
      <trkpt lat="45.13318" lon="5.92565">
        <ele>2251</ele>
        <time>2013-09-26T16:05:27Z</time>
      </trkpt>
      <trkpt lat="45.13319" lon="5.92569">
        <ele>2253</ele>
        <time>2013-09-26T16:05:30Z</time>
      </trkpt>
      <trkpt lat="45.13318" lon="5.92589">
        <ele>2265</ele>
        <time>2013-09-26T16:05:46Z</time>
      </trkpt>
      <trkpt lat="45.1332" lon="5.92598">
        <ele>2264</ele>
        <time>2013-09-26T16:05:55Z</time>
      </trkpt>
      <trkpt lat="45.13316" lon="5.926">
        <ele>2263</ele>
        <time>2013-09-26T16:05:59Z</time>
      </trkpt>
      <trkpt lat="45.13316" lon="5.9261">
        <ele>2262</ele>
        <time>2013-09-26T16:06:10Z</time>
      </trkpt>
      <trkpt lat="45.13316" lon="5.92618">
        <ele>2262</ele>
        <time>2013-09-26T16:06:24Z</time>
      </trkpt>
      <trkpt lat="45.13316" lon="5.92623">
        <ele>2262</ele>
        <time>2013-09-26T16:06:35Z</time>
      </trkpt>
      <trkpt lat="45.13317" lon="5.92628">
        <ele>2262</ele>
        <time>2013-09-26T16:06:54Z</time>
      </trkpt>
      <trkpt lat="45.13322" lon="5.92631">
        <ele>2263</ele>
        <time>2013-09-26T16:07:08Z</time>
      </trkpt>
      <trkpt lat="45.13326" lon="5.92638">
        <ele>2264</ele>
        <time>2013-09-26T16:07:19Z</time>
      </trkpt>
      <trkpt lat="45.13327" lon="5.92643">
        <ele>2265</ele>
        <time>2013-09-26T16:07:32Z</time>
      </trkpt>
      <trkpt lat="45.13326" lon="5.92651">
        <ele>2267</ele>
        <time>2013-09-26T16:07:53Z</time>
      </trkpt>
      <trkpt lat="45.1333" lon="5.92662">
        <ele>2271</ele>
        <time>2013-09-26T16:08:07Z</time>
      </trkpt>
      <trkpt lat="45.13329" lon="5.92669">
        <ele>2274</ele>
        <time>2013-09-26T16:08:20Z</time>
      </trkpt>
      <trkpt lat="45.1333" lon="5.92672">
        <ele>2274</ele>
        <time>2013-09-26T16:08:33Z</time>
      </trkpt>
      <trkpt lat="45.13334" lon="5.92677">
        <ele>2281</ele>
        <time>2013-09-26T16:08:49Z</time>
      </trkpt>
      <trkpt lat="45.13333" lon="5.92683">
        <ele>2275</ele>
        <time>2013-09-26T16:09:16Z</time>
      </trkpt>
      <trkpt lat="45.13334" lon="5.92685">
        <ele>2285</ele>
        <time>2013-09-26T16:09:30Z</time>
      </trkpt>
      <trkpt lat="45.13339" lon="5.92694">
        <ele>2289</ele>
        <time>2013-09-26T16:09:52Z</time>
      </trkpt>
      <trkpt lat="45.13346" lon="5.927">
        <ele>2291</ele>
        <time>2013-09-26T16:10:03Z</time>
      </trkpt>
      <trkpt lat="45.13345" lon="5.92709">
        <ele>2294</ele>
        <time>2013-09-26T16:10:17Z</time>
      </trkpt>
      <trkpt lat="45.13345" lon="5.92714">
        <ele>2295</ele>
        <time>2013-09-26T16:10:34Z</time>
      </trkpt>
      <trkpt lat="45.13343" lon="5.92722">
        <ele>2298</ele>
        <time>2013-09-26T16:10:48Z</time>
      </trkpt>
      <trkpt lat="45.13341" lon="5.92728">
        <ele>2300</ele>
        <time>2013-09-26T16:11:00Z</time>
      </trkpt>
      <trkpt lat="45.13344" lon="5.92735">
        <ele>2302</ele>
        <time>2013-09-26T16:11:20Z</time>
      </trkpt>
      <trkpt lat="45.13346" lon="5.92744">
        <ele>2304</ele>
        <time>2013-09-26T16:11:32Z</time>
      </trkpt>
      <trkpt lat="45.13347" lon="5.92756">
        <ele>2318</ele>
        <time>2013-09-26T16:11:54Z</time>
      </trkpt>
      <trkpt lat="45.13351" lon="5.92768">
        <ele>2322</ele>
        <time>2013-09-26T16:12:05Z</time>
      </trkpt>
      <trkpt lat="45.13356" lon="5.9279">
        <ele>2327</ele>
        <time>2013-09-26T16:12:23Z</time>
      </trkpt>
      <trkpt lat="45.13357" lon="5.92791">
        <ele>2328</ele>
        <time>2013-09-26T16:12:24Z</time>
      </trkpt>
      <trkpt lat="45.13359" lon="5.92817">
        <ele>2333</ele>
        <time>2013-09-26T16:12:44Z</time>
      </trkpt>
      <trkpt lat="45.13356" lon="5.92827">
        <ele>2335</ele>
        <time>2013-09-26T16:12:57Z</time>
      </trkpt>
      <trkpt lat="45.1335" lon="5.92832">
        <ele>2338</ele>
        <time>2013-09-26T16:13:07Z</time>
      </trkpt>
      <trkpt lat="45.13345" lon="5.92832">
        <ele>2340</ele>
        <time>2013-09-26T16:13:21Z</time>
      </trkpt>
      <trkpt lat="45.13339" lon="5.92837">
        <ele>2351</ele>
        <time>2013-09-26T16:13:33Z</time>
      </trkpt>
      <trkpt lat="45.13335" lon="5.92843">
        <ele>2353</ele>
        <time>2013-09-26T16:13:53Z</time>
      </trkpt>
      <trkpt lat="45.13332" lon="5.92862">
        <ele>2342</ele>
        <time>2013-09-26T16:14:09Z</time>
      </trkpt>
      <trkpt lat="45.13332" lon="5.9287">
        <ele>2344</ele>
        <time>2013-09-26T16:14:20Z</time>
      </trkpt>
      <trkpt lat="45.13333" lon="5.92876">
        <ele>2346</ele>
        <time>2013-09-26T16:14:35Z</time>
      </trkpt>
      <trkpt lat="45.1333" lon="5.9288">
        <ele>2347</ele>
        <time>2013-09-26T16:14:45Z</time>
      </trkpt>
      <trkpt lat="45.13328" lon="5.92885">
        <ele>2349</ele>
        <time>2013-09-26T16:14:56Z</time>
      </trkpt>
      <trkpt lat="45.13327" lon="5.92898">
        <ele>2357</ele>
        <time>2013-09-26T16:15:12Z</time>
      </trkpt>
      <trkpt lat="45.13332" lon="5.92914">
        <ele>2377</ele>
        <time>2013-09-26T16:15:29Z</time>
      </trkpt>
      <trkpt lat="45.13332" lon="5.92919">
        <ele>2381</ele>
        <time>2013-09-26T16:15:42Z</time>
      </trkpt>
      <trkpt lat="45.13332" lon="5.92927">
        <ele>2379</ele>
        <time>2013-09-26T16:15:56Z</time>
      </trkpt>
      <trkpt lat="45.13331" lon="5.92927">
        <ele>2378</ele>
        <time>2013-09-26T16:16:22Z</time>
      </trkpt>
      <trkpt lat="45.13333" lon="5.92936">
        <ele>2377</ele>
        <time>2013-09-26T16:16:31Z</time>
      </trkpt>
      <trkpt lat="45.13335" lon="5.92945">
        <ele>2397</ele>
        <time>2013-09-26T16:16:45Z</time>
      </trkpt>
      <trkpt lat="45.13337" lon="5.92948">
        <ele>2398</ele>
        <time>2013-09-26T16:16:48Z</time>
      </trkpt>
      <trkpt lat="45.13337" lon="5.92954">
        <ele>2399</ele>
        <time>2013-09-26T16:16:52Z</time>
      </trkpt>
      <trkpt lat="45.13338" lon="5.92963">
        <ele>2402</ele>
        <time>2013-09-26T16:17:09Z</time>
      </trkpt>
      <trkpt lat="45.13341" lon="5.92967">
        <ele>2403</ele>
        <time>2013-09-26T16:17:26Z</time>
      </trkpt>
      <trkpt lat="45.13345" lon="5.92975">
        <ele>2405</ele>
        <time>2013-09-26T16:17:32Z</time>
      </trkpt>
      <trkpt lat="45.13348" lon="5.92985">
        <ele>2407</ele>
        <time>2013-09-26T16:17:38Z</time>
      </trkpt>
      <trkpt lat="45.1335" lon="5.92992">
        <ele>2408</ele>
        <time>2013-09-26T16:17:43Z</time>
      </trkpt>
      <trkpt lat="45.13354" lon="5.93001">
        <ele>2419</ele>
        <time>2013-09-26T16:17:54Z</time>
      </trkpt>
      <trkpt lat="45.13354" lon="5.93013">
        <ele>2420</ele>
        <time>2013-09-26T16:18:12Z</time>
      </trkpt>
      <trkpt lat="45.13355" lon="5.93023">
        <ele>2421</ele>
        <time>2013-09-26T16:18:23Z</time>
      </trkpt>
      <trkpt lat="45.13354" lon="5.93031">
        <ele>2422</ele>
        <time>2013-09-26T16:18:37Z</time>
      </trkpt>
      <trkpt lat="45.13352" lon="5.93038">
        <ele>2423</ele>
        <time>2013-09-26T16:18:52Z</time>
      </trkpt>
      <trkpt lat="45.13353" lon="5.93047">
        <ele>2424</ele>
        <time>2013-09-26T16:19:05Z</time>
      </trkpt>
      <trkpt lat="45.13353" lon="5.93053">
        <ele>2425</ele>
        <time>2013-09-26T16:19:15Z</time>
      </trkpt>
      <trkpt lat="45.13355" lon="5.93057">
        <ele>2425</ele>
        <time>2013-09-26T16:19:25Z</time>
      </trkpt>
      <trkpt lat="45.13353" lon="5.93069">
        <ele>2426</ele>
        <time>2013-09-26T16:19:41Z</time>
      </trkpt>
      <trkpt lat="45.13351" lon="5.93073">
        <ele>2427</ele>
        <time>2013-09-26T16:20:07Z</time>
      </trkpt>
      <trkpt lat="45.13351" lon="5.93075">
        <ele>2427</ele>
        <time>2013-09-26T16:20:08Z</time>
      </trkpt>
      <trkpt lat="45.13352" lon="5.93087">
        <ele>2435</ele>
        <time>2013-09-26T16:20:16Z</time>
      </trkpt>
      <trkpt lat="45.13353" lon="5.93095">
        <ele>2436</ele>
        <time>2013-09-26T16:20:20Z</time>
      </trkpt>
      <trkpt lat="45.13349" lon="5.93126">
        <ele>2440</ele>
        <time>2013-09-26T16:20:36Z</time>
      </trkpt>
      <trkpt lat="45.13342" lon="5.93135">
        <ele>2442</ele>
        <time>2013-09-26T16:20:50Z</time>
      </trkpt>
      <trkpt lat="45.13334" lon="5.93147">
        <ele>2446</ele>
        <time>2013-09-26T16:21:14Z</time>
      </trkpt>
      <trkpt lat="45.13328" lon="5.93167">
        <ele>2456</ele>
        <time>2013-09-26T16:21:30Z</time>
      </trkpt>
      <trkpt lat="45.13324" lon="5.93192">
        <ele>2461</ele>
        <time>2013-09-26T16:21:46Z</time>
      </trkpt>
      <trkpt lat="45.13325" lon="5.93201">
        <ele>2463</ele>
        <time>2013-09-26T16:21:51Z</time>
      </trkpt>
      <trkpt lat="45.13327" lon="5.93219">
        <ele>2467</ele>
        <time>2013-09-26T16:22:04Z</time>
      </trkpt>
      <trkpt lat="45.13332" lon="5.93243">
        <ele>2476</ele>
        <time>2013-09-26T16:22:23Z</time>
      </trkpt>
      <trkpt lat="45.13343" lon="5.93262">
        <ele>2478</ele>
        <time>2013-09-26T16:22:44Z</time>
      </trkpt>
      <trkpt lat="45.13358" lon="5.93277">
        <ele>2476</ele>
        <time>2013-09-26T16:23:03Z</time>
      </trkpt>
      <trkpt lat="45.13367" lon="5.93285">
        <ele>2475</ele>
        <time>2013-09-26T16:23:15Z</time>
      </trkpt>
      <trkpt lat="45.13373" lon="5.93291">
        <ele>2475</ele>
        <time>2013-09-26T16:23:27Z</time>
      </trkpt>
      <trkpt lat="45.13379" lon="5.93296">
        <ele>2475</ele>
        <time>2013-09-26T16:23:35Z</time>
      </trkpt>
      <trkpt lat="45.13381" lon="5.93302">
        <ele>2475</ele>
        <time>2013-09-26T16:23:49Z</time>
      </trkpt>
      <trkpt lat="45.13384" lon="5.93305">
        <ele>2475</ele>
        <time>2013-09-26T16:24:17Z</time>
      </trkpt>
      <trkpt lat="45.1339" lon="5.93313">
        <ele>2475</ele>
        <time>2013-09-26T16:24:30Z</time>
      </trkpt>
      <trkpt lat="45.13391" lon="5.93318">
        <ele>2476</ele>
        <time>2013-09-26T16:24:36Z</time>
      </trkpt>
      <trkpt lat="45.13392" lon="5.93323">
        <ele>2476</ele>
        <time>2013-09-26T16:24:49Z</time>
      </trkpt>
      <trkpt lat="45.13393" lon="5.93329">
        <ele>2476</ele>
        <time>2013-09-26T16:24:58Z</time>
      </trkpt>
      <trkpt lat="45.13392" lon="5.93335">
        <ele>2474</ele>
        <time>2013-09-26T16:25:09Z</time>
      </trkpt>
      <trkpt lat="45.13391" lon="5.93343">
        <ele>2474</ele>
        <time>2013-09-26T16:25:27Z</time>
      </trkpt>
      <trkpt lat="45.13396" lon="5.93349">
        <ele>2473</ele>
        <time>2013-09-26T16:25:37Z</time>
      </trkpt>
      <trkpt lat="45.13401" lon="5.9336">
        <ele>2473</ele>
        <time>2013-09-26T16:25:51Z</time>
      </trkpt>
      <trkpt lat="45.13401" lon="5.93368">
        <ele>2472</ele>
        <time>2013-09-26T16:26:04Z</time>
      </trkpt>
      <trkpt lat="45.13402" lon="5.93372">
        <ele>2472</ele>
        <time>2013-09-26T16:26:14Z</time>
      </trkpt>
      <trkpt lat="45.13402" lon="5.93372">
        <ele>2472</ele>
        <time>2013-09-26T16:26:39Z</time>
      </trkpt>
      <trkpt lat="45.13402" lon="5.93373">
        <ele>2472</ele>
        <time>2013-09-26T16:27:09Z</time>
      </trkpt>
      <trkpt lat="45.13395" lon="5.93372">
        <ele>2472</ele>
        <time>2013-09-26T16:27:34Z</time>
      </trkpt>
      <trkpt lat="45.13395" lon="5.9337">
        <ele>2472</ele>
        <time>2013-09-26T16:27:58Z</time>
      </trkpt>
      <trkpt lat="45.13396" lon="5.93371">
        <ele>2472</ele>
        <time>2013-09-26T16:28:28Z</time>
      </trkpt>
      <trkpt lat="45.13394" lon="5.93374">
        <ele>2471</ele>
        <time>2013-09-26T16:29:00Z</time>
      </trkpt>
      <trkpt lat="45.13394" lon="5.93372">
        <ele>2472</ele>
        <time>2013-09-26T16:29:29Z</time>
      </trkpt>
      <trkpt lat="45.13394" lon="5.93371">
        <ele>2472</ele>
        <time>2013-09-26T16:30:10Z</time>
      </trkpt>
      <trkpt lat="45.13394" lon="5.93371">
        <ele>2472</ele>
        <time>2013-09-26T16:31:04Z</time>
      </trkpt>
      <trkpt lat="45.13394" lon="5.93372">
        <ele>2472</ele>
        <time>2013-09-26T16:31:46Z</time>
      </trkpt>
      <trkpt lat="45.13394" lon="5.93372">
        <ele>2472</ele>
        <time>2013-09-26T16:32:17Z</time>
      </trkpt>
      <trkpt lat="45.13394" lon="5.93372">
        <ele>2472</ele>
        <time>2013-09-26T16:32:29Z</time>
      </trkpt>
      <trkpt lat="45.13391" lon="5.93367">
        <ele>2472</ele>
        <time>2013-09-26T16:32:39Z</time>
      </trkpt>
      <trkpt lat="45.13386" lon="5.93361">
        <ele>2472</ele>
        <time>2013-09-26T16:32:49Z</time>
      </trkpt>
      <trkpt lat="45.13384" lon="5.93352">
        <ele>2473</ele>
        <time>2013-09-26T16:32:57Z</time>
      </trkpt>
      <trkpt lat="45.13382" lon="5.93342">
        <ele>2474</ele>
        <time>2013-09-26T16:33:03Z</time>
      </trkpt>
      <trkpt lat="45.13382" lon="5.93341">
        <ele>2474</ele>
        <time>2013-09-26T16:33:04Z</time>
      </trkpt>
      <trkpt lat="45.13384" lon="5.93338">
        <ele>2474</ele>
        <time>2013-09-26T16:33:07Z</time>
      </trkpt>
      <trkpt lat="45.1338" lon="5.93326">
        <ele>2477</ele>
        <time>2013-09-26T16:33:14Z</time>
      </trkpt>
      <trkpt lat="45.1338" lon="5.93325">
        <ele>2477</ele>
        <time>2013-09-26T16:33:16Z</time>
      </trkpt>
      <trkpt lat="45.13377" lon="5.93318">
        <ele>2477</ele>
        <time>2013-09-26T16:33:23Z</time>
      </trkpt>
      <trkpt lat="45.13373" lon="5.93311">
        <ele>2477</ele>
        <time>2013-09-26T16:33:29Z</time>
      </trkpt>
      <trkpt lat="45.13367" lon="5.93305">
        <ele>2477</ele>
        <time>2013-09-26T16:33:39Z</time>
      </trkpt>
      <trkpt lat="45.13366" lon="5.93302">
        <ele>2477</ele>
        <time>2013-09-26T16:33:41Z</time>
      </trkpt>
      <trkpt lat="45.13356" lon="5.93297">
        <ele>2477</ele>
        <time>2013-09-26T16:33:51Z</time>
      </trkpt>
      <trkpt lat="45.13354" lon="5.93294">
        <ele>2477</ele>
        <time>2013-09-26T16:33:57Z</time>
      </trkpt>
      <trkpt lat="45.13354" lon="5.93285">
        <ele>2477</ele>
        <time>2013-09-26T16:34:01Z</time>
      </trkpt>
      <trkpt lat="45.13353" lon="5.93277">
        <ele>2476</ele>
        <time>2013-09-26T16:34:04Z</time>
      </trkpt>
      <trkpt lat="45.13356" lon="5.93266">
        <ele>2476</ele>
        <time>2013-09-26T16:34:09Z</time>
      </trkpt>
      <trkpt lat="45.13356" lon="5.93261">
        <ele>2476</ele>
        <time>2013-09-26T16:34:12Z</time>
      </trkpt>
      <trkpt lat="45.13354" lon="5.93247">
        <ele>2467</ele>
        <time>2013-09-26T16:34:21Z</time>
      </trkpt>
      <trkpt lat="45.1335" lon="5.93231">
        <ele>2466</ele>
        <time>2013-09-26T16:34:30Z</time>
      </trkpt>
      <trkpt lat="45.1335" lon="5.93215">
        <ele>2462</ele>
        <time>2013-09-26T16:34:36Z</time>
      </trkpt>
      <trkpt lat="45.13355" lon="5.93193">
        <ele>2458</ele>
        <time>2013-09-26T16:34:46Z</time>
      </trkpt>
      <trkpt lat="45.13355" lon="5.93191">
        <ele>2457</ele>
        <time>2013-09-26T16:34:47Z</time>
      </trkpt>
      <trkpt lat="45.13353" lon="5.93175">
        <ele>2456</ele>
        <time>2013-09-26T16:34:55Z</time>
      </trkpt>
      <trkpt lat="45.1335" lon="5.93167">
        <ele>2455</ele>
        <time>2013-09-26T16:35:02Z</time>
      </trkpt>
      <trkpt lat="45.13354" lon="5.93148">
        <ele>2444</ele>
        <time>2013-09-26T16:35:14Z</time>
      </trkpt>
      <trkpt lat="45.13354" lon="5.93147">
        <ele>2444</ele>
        <time>2013-09-26T16:35:15Z</time>
      </trkpt>
      <trkpt lat="45.13361" lon="5.93126">
        <ele>2440</ele>
        <time>2013-09-26T16:35:32Z</time>
      </trkpt>
      <trkpt lat="45.13367" lon="5.93105">
        <ele>2438</ele>
        <time>2013-09-26T16:35:47Z</time>
      </trkpt>
      <trkpt lat="45.13367" lon="5.93101">
        <ele>2438</ele>
        <time>2013-09-26T16:35:50Z</time>
      </trkpt>
      <trkpt lat="45.13372" lon="5.93092">
        <ele>2437</ele>
        <time>2013-09-26T16:36:04Z</time>
      </trkpt>
      <trkpt lat="45.13373" lon="5.93087">
        <ele>2437</ele>
        <time>2013-09-26T16:36:32Z</time>
      </trkpt>
      <trkpt lat="45.13372" lon="5.93083">
        <ele>2427</ele>
        <time>2013-09-26T16:36:35Z</time>
      </trkpt>
      <trkpt lat="45.13368" lon="5.93061">
        <ele>2425</ele>
        <time>2013-09-26T16:36:49Z</time>
      </trkpt>
      <trkpt lat="45.13369" lon="5.93045">
        <ele>2424</ele>
        <time>2013-09-26T16:37:00Z</time>
      </trkpt>
      <trkpt lat="45.13367" lon="5.93042">
        <ele>2423</ele>
        <time>2013-09-26T16:37:08Z</time>
      </trkpt>
      <trkpt lat="45.13364" lon="5.93041">
        <ele>2423</ele>
        <time>2013-09-26T16:37:11Z</time>
      </trkpt>
      <trkpt lat="45.1336" lon="5.93041">
        <ele>2423</ele>
        <time>2013-09-26T16:37:15Z</time>
      </trkpt>
      <trkpt lat="45.13352" lon="5.93028">
        <ele>2421</ele>
        <time>2013-09-26T16:37:32Z</time>
      </trkpt>
      <trkpt lat="45.13352" lon="5.93024">
        <ele>2421</ele>
        <time>2013-09-26T16:37:35Z</time>
      </trkpt>
      <trkpt lat="45.1335" lon="5.93011">
        <ele>2419</ele>
        <time>2013-09-26T16:37:41Z</time>
      </trkpt>
      <trkpt lat="45.13346" lon="5.93">
        <ele>2417</ele>
        <time>2013-09-26T16:37:47Z</time>
      </trkpt>
      <trkpt lat="45.13345" lon="5.92995">
        <ele>2409</ele>
        <time>2013-09-26T16:37:50Z</time>
      </trkpt>
      <trkpt lat="45.13342" lon="5.92987">
        <ele>2408</ele>
        <time>2013-09-26T16:37:56Z</time>
      </trkpt>
      <trkpt lat="45.13341" lon="5.92986">
        <ele>2408</ele>
        <time>2013-09-26T16:37:57Z</time>
      </trkpt>
      <trkpt lat="45.13337" lon="5.92978">
        <ele>2406</ele>
        <time>2013-09-26T16:38:08Z</time>
      </trkpt>
      <trkpt lat="45.13336" lon="5.92971">
        <ele>2404</ele>
        <time>2013-09-26T16:38:13Z</time>
      </trkpt>
      <trkpt lat="45.13337" lon="5.92963">
        <ele>2402</ele>
        <time>2013-09-26T16:38:22Z</time>
      </trkpt>
      <trkpt lat="45.13339" lon="5.92954">
        <ele>2400</ele>
        <time>2013-09-26T16:38:29Z</time>
      </trkpt>
      <trkpt lat="45.13343" lon="5.92951">
        <ele>2399</ele>
        <time>2013-09-26T16:38:35Z</time>
      </trkpt>
      <trkpt lat="45.13344" lon="5.92949">
        <ele>2398</ele>
        <time>2013-09-26T16:38:37Z</time>
      </trkpt>
      <trkpt lat="45.13343" lon="5.92946">
        <ele>2397</ele>
        <time>2013-09-26T16:38:39Z</time>
      </trkpt>
      <trkpt lat="45.13342" lon="5.9294">
        <ele>2395</ele>
        <time>2013-09-26T16:38:43Z</time>
      </trkpt>
      <trkpt lat="45.13344" lon="5.92935">
        <ele>2394</ele>
        <time>2013-09-26T16:38:46Z</time>
      </trkpt>
      <trkpt lat="45.13338" lon="5.92916">
        <ele>2380</ele>
        <time>2013-09-26T16:38:57Z</time>
      </trkpt>
      <trkpt lat="45.13337" lon="5.92914">
        <ele>2380</ele>
        <time>2013-09-26T16:38:59Z</time>
      </trkpt>
      <trkpt lat="45.13333" lon="5.92908">
        <ele>2378</ele>
        <time>2013-09-26T16:39:04Z</time>
      </trkpt>
      <trkpt lat="45.13332" lon="5.92901">
        <ele>2361</ele>
        <time>2013-09-26T16:39:08Z</time>
      </trkpt>
      <trkpt lat="45.13331" lon="5.92887">
        <ele>2350</ele>
        <time>2013-09-26T16:39:18Z</time>
      </trkpt>
      <trkpt lat="45.13331" lon="5.92877">
        <ele>2346</ele>
        <time>2013-09-26T16:39:25Z</time>
      </trkpt>
      <trkpt lat="45.1334" lon="5.92873">
        <ele>2364</ele>
        <time>2013-09-26T16:39:36Z</time>
      </trkpt>
      <trkpt lat="45.13342" lon="5.92868">
        <ele>2363</ele>
        <time>2013-09-26T16:39:40Z</time>
      </trkpt>
      <trkpt lat="45.13344" lon="5.92859">
        <ele>2360</ele>
        <time>2013-09-26T16:39:46Z</time>
      </trkpt>
      <trkpt lat="45.13345" lon="5.92849">
        <ele>2356</ele>
        <time>2013-09-26T16:39:51Z</time>
      </trkpt>
      <trkpt lat="45.13353" lon="5.92834">
        <ele>2355</ele>
        <time>2013-09-26T16:40:02Z</time>
      </trkpt>
      <trkpt lat="45.13359" lon="5.92829">
        <ele>2335</ele>
        <time>2013-09-26T16:40:08Z</time>
      </trkpt>
      <trkpt lat="45.13361" lon="5.92832">
        <ele>2335</ele>
        <time>2013-09-26T16:40:11Z</time>
      </trkpt>
      <trkpt lat="45.13364" lon="5.92829">
        <ele>2334</ele>
        <time>2013-09-26T16:40:15Z</time>
      </trkpt>
      <trkpt lat="45.13365" lon="5.92819">
        <ele>2333</ele>
        <time>2013-09-26T16:40:20Z</time>
      </trkpt>
      <trkpt lat="45.13365" lon="5.92815">
        <ele>2332</ele>
        <time>2013-09-26T16:40:22Z</time>
      </trkpt>
      <trkpt lat="45.13364" lon="5.92808">
        <ele>2331</ele>
        <time>2013-09-26T16:40:26Z</time>
      </trkpt>
      <trkpt lat="45.13363" lon="5.928">
        <ele>2329</ele>
        <time>2013-09-26T16:40:30Z</time>
      </trkpt>
      <trkpt lat="45.1336" lon="5.92793">
        <ele>2328</ele>
        <time>2013-09-26T16:40:34Z</time>
      </trkpt>
      <trkpt lat="45.1336" lon="5.92787">
        <ele>2327</ele>
        <time>2013-09-26T16:40:38Z</time>
      </trkpt>
      <trkpt lat="45.13356" lon="5.92772">
        <ele>2323</ele>
        <time>2013-09-26T16:40:54Z</time>
      </trkpt>
      <trkpt lat="45.13355" lon="5.92765">
        <ele>2322</ele>
        <time>2013-09-26T16:40:58Z</time>
      </trkpt>
      <trkpt lat="45.13351" lon="5.92752">
        <ele>2318</ele>
        <time>2013-09-26T16:41:02Z</time>
      </trkpt>
      <trkpt lat="45.13349" lon="5.92744">
        <ele>2303</ele>
        <time>2013-09-26T16:41:11Z</time>
      </trkpt>
      <trkpt lat="45.13348" lon="5.9274">
        <ele>2302</ele>
        <time>2013-09-26T16:41:31Z</time>
      </trkpt>
      <trkpt lat="45.13347" lon="5.92733">
        <ele>2301</ele>
        <time>2013-09-26T16:41:56Z</time>
      </trkpt>
      <trkpt lat="45.13345" lon="5.92725">
        <ele>2299</ele>
        <time>2013-09-26T16:42:03Z</time>
      </trkpt>
      <trkpt lat="45.13345" lon="5.92723">
        <ele>2298</ele>
        <time>2013-09-26T16:42:13Z</time>
      </trkpt>
      <trkpt lat="45.13344" lon="5.92715">
        <ele>2296</ele>
        <time>2013-09-26T16:42:21Z</time>
      </trkpt>
      <trkpt lat="45.13348" lon="5.92709">
        <ele>2294</ele>
        <time>2013-09-26T16:42:28Z</time>
      </trkpt>
      <trkpt lat="45.13347" lon="5.92701">
        <ele>2291</ele>
        <time>2013-09-26T16:42:34Z</time>
      </trkpt>
      <trkpt lat="45.13345" lon="5.92696">
        <ele>2290</ele>
        <time>2013-09-26T16:42:38Z</time>
      </trkpt>
      <trkpt lat="45.13339" lon="5.92686">
        <ele>2286</ele>
        <time>2013-09-26T16:43:01Z</time>
      </trkpt>
      <trkpt lat="45.13339" lon="5.9268">
        <ele>2283</ele>
        <time>2013-09-26T16:43:04Z</time>
      </trkpt>
      <trkpt lat="45.13331" lon="5.92669">
        <ele>2274</ele>
        <time>2013-09-26T16:43:21Z</time>
      </trkpt>
      <trkpt lat="45.13335" lon="5.92669">
        <ele>2276</ele>
        <time>2013-09-26T16:43:25Z</time>
      </trkpt>
      <trkpt lat="45.13334" lon="5.9266">
        <ele>2272</ele>
        <time>2013-09-26T16:43:33Z</time>
      </trkpt>
      <trkpt lat="45.13326" lon="5.92655">
        <ele>2268</ele>
        <time>2013-09-26T16:43:50Z</time>
      </trkpt>
      <trkpt lat="45.13324" lon="5.92648">
        <ele>2266</ele>
        <time>2013-09-26T16:44:00Z</time>
      </trkpt>
      <trkpt lat="45.13325" lon="5.92641">
        <ele>2265</ele>
        <time>2013-09-26T16:44:11Z</time>
      </trkpt>
      <trkpt lat="45.1332" lon="5.92632">
        <ele>2263</ele>
        <time>2013-09-26T16:44:30Z</time>
      </trkpt>
      <trkpt lat="45.13316" lon="5.92626">
        <ele>2262</ele>
        <time>2013-09-26T16:44:45Z</time>
      </trkpt>
      <trkpt lat="45.13311" lon="5.92622">
        <ele>2261</ele>
        <time>2013-09-26T16:44:51Z</time>
      </trkpt>
      <trkpt lat="45.1331" lon="5.92615">
        <ele>2261</ele>
        <time>2013-09-26T16:45:01Z</time>
      </trkpt>
      <trkpt lat="45.13311" lon="5.92611">
        <ele>2262</ele>
        <time>2013-09-26T16:45:10Z</time>
      </trkpt>
      <trkpt lat="45.13313" lon="5.92606">
        <ele>2262</ele>
        <time>2013-09-26T16:45:17Z</time>
      </trkpt>
      <trkpt lat="45.13312" lon="5.92602">
        <ele>2262</ele>
        <time>2013-09-26T16:45:20Z</time>
      </trkpt>
      <trkpt lat="45.13317" lon="5.92594">
        <ele>2264</ele>
        <time>2013-09-26T16:45:32Z</time>
      </trkpt>
      <trkpt lat="45.13316" lon="5.92588">
        <ele>2264</ele>
        <time>2013-09-26T16:45:49Z</time>
      </trkpt>
      <trkpt lat="45.13318" lon="5.92578">
        <ele>2256</ele>
        <time>2013-09-26T16:45:57Z</time>
      </trkpt>
      <trkpt lat="45.13323" lon="5.92569">
        <ele>2254</ele>
        <time>2013-09-26T16:46:06Z</time>
      </trkpt>
      <trkpt lat="45.13318" lon="5.92555">
        <ele>2246</ele>
        <time>2013-09-26T16:46:25Z</time>
      </trkpt>
      <trkpt lat="45.13315" lon="5.92556">
        <ele>2246</ele>
        <time>2013-09-26T16:46:41Z</time>
      </trkpt>
      <trkpt lat="45.13309" lon="5.92557">
        <ele>2245</ele>
        <time>2013-09-26T16:46:58Z</time>
      </trkpt>
      <trkpt lat="45.13313" lon="5.92563">
        <ele>2248</ele>
        <time>2013-09-26T16:47:23Z</time>
      </trkpt>
      <trkpt lat="45.13311" lon="5.92572">
        <ele>2250</ele>
        <time>2013-09-26T16:47:42Z</time>
      </trkpt>
      <trkpt lat="45.13306" lon="5.92574">
        <ele>2249</ele>
        <time>2013-09-26T16:47:52Z</time>
      </trkpt>
      <trkpt lat="45.13301" lon="5.92574">
        <ele>2247</ele>
        <time>2013-09-26T16:48:04Z</time>
      </trkpt>
      <trkpt lat="45.13294" lon="5.9257">
        <ele>2244</ele>
        <time>2013-09-26T16:48:12Z</time>
      </trkpt>
      <trkpt lat="45.13287" lon="5.92567">
        <ele>2242</ele>
        <time>2013-09-26T16:48:19Z</time>
      </trkpt>
      <trkpt lat="45.13286" lon="5.92564">
        <ele>2241</ele>
        <time>2013-09-26T16:48:21Z</time>
      </trkpt>
      <trkpt lat="45.13284" lon="5.92563">
        <ele>2241</ele>
        <time>2013-09-26T16:48:23Z</time>
      </trkpt>
      <trkpt lat="45.13279" lon="5.92554">
        <ele>2239</ele>
        <time>2013-09-26T16:48:30Z</time>
      </trkpt>
      <trkpt lat="45.13275" lon="5.92546">
        <ele>2237</ele>
        <time>2013-09-26T16:48:39Z</time>
      </trkpt>
      <trkpt lat="45.13278" lon="5.9253">
        <ele>2234</ele>
        <time>2013-09-26T16:49:08Z</time>
      </trkpt>
      <trkpt lat="45.13275" lon="5.92532">
        <ele>2234</ele>
        <time>2013-09-26T16:49:29Z</time>
      </trkpt>
      <trkpt lat="45.13272" lon="5.9254">
        <ele>2235</ele>
        <time>2013-09-26T16:49:34Z</time>
      </trkpt>
      <trkpt lat="45.13266" lon="5.92544">
        <ele>2236</ele>
        <time>2013-09-26T16:49:42Z</time>
      </trkpt>
      <trkpt lat="45.13263" lon="5.92542">
        <ele>2235</ele>
        <time>2013-09-26T16:49:45Z</time>
      </trkpt>
      <trkpt lat="45.13259" lon="5.92538">
        <ele>2233</ele>
        <time>2013-09-26T16:49:49Z</time>
      </trkpt>
      <trkpt lat="45.13253" lon="5.92531">
        <ele>2231</ele>
        <time>2013-09-26T16:49:55Z</time>
      </trkpt>
      <trkpt lat="45.1325" lon="5.92535">
        <ele>2223</ele>
        <time>2013-09-26T16:49:59Z</time>
      </trkpt>
      <trkpt lat="45.13245" lon="5.92533">
        <ele>2223</ele>
        <time>2013-09-26T16:50:04Z</time>
      </trkpt>
      <trkpt lat="45.1324" lon="5.92526">
        <ele>2221</ele>
        <time>2013-09-26T16:50:11Z</time>
      </trkpt>
      <trkpt lat="45.13237" lon="5.92523">
        <ele>2221</ele>
        <time>2013-09-26T16:50:15Z</time>
      </trkpt>
      <trkpt lat="45.13229" lon="5.92514">
        <ele>2220</ele>
        <time>2013-09-26T16:50:22Z</time>
      </trkpt>
      <trkpt lat="45.13229" lon="5.92512">
        <ele>2220</ele>
        <time>2013-09-26T16:50:24Z</time>
      </trkpt>
      <trkpt lat="45.13218" lon="5.92495">
        <ele>2204</ele>
        <time>2013-09-26T16:50:40Z</time>
      </trkpt>
      <trkpt lat="45.13217" lon="5.92486">
        <ele>2203</ele>
        <time>2013-09-26T16:50:51Z</time>
      </trkpt>
      <trkpt lat="45.13219" lon="5.92483">
        <ele>2203</ele>
        <time>2013-09-26T16:51:00Z</time>
      </trkpt>
      <trkpt lat="45.13215" lon="5.92483">
        <ele>2203</ele>
        <time>2013-09-26T16:51:07Z</time>
      </trkpt>
      <trkpt lat="45.13213" lon="5.92481">
        <ele>2202</ele>
        <time>2013-09-26T16:51:09Z</time>
      </trkpt>
      <trkpt lat="45.13201" lon="5.92473">
        <ele>2201</ele>
        <time>2013-09-26T16:51:22Z</time>
      </trkpt>
      <trkpt lat="45.13194" lon="5.92453">
        <ele>2198</ele>
        <time>2013-09-26T16:51:36Z</time>
      </trkpt>
      <trkpt lat="45.13186" lon="5.9245">
        <ele>2198</ele>
        <time>2013-09-26T16:51:43Z</time>
      </trkpt>
      <trkpt lat="45.13184" lon="5.92452">
        <ele>2199</ele>
        <time>2013-09-26T16:51:46Z</time>
      </trkpt>
      <trkpt lat="45.13167" lon="5.92451">
        <ele>2199</ele>
        <time>2013-09-26T16:52:00Z</time>
      </trkpt>
      <trkpt lat="45.13167" lon="5.9245">
        <ele>2198</ele>
        <time>2013-09-26T16:52:10Z</time>
      </trkpt>
      <trkpt lat="45.13163" lon="5.92446">
        <ele>2204</ele>
        <time>2013-09-26T16:52:29Z</time>
      </trkpt>
      <trkpt lat="45.13159" lon="5.92443">
        <ele>2204</ele>
        <time>2013-09-26T16:52:46Z</time>
      </trkpt>
      <trkpt lat="45.13159" lon="5.92432">
        <ele>2201</ele>
        <time>2013-09-26T16:52:53Z</time>
      </trkpt>
      <trkpt lat="45.13158" lon="5.92427">
        <ele>2200</ele>
        <time>2013-09-26T16:52:58Z</time>
      </trkpt>
      <trkpt lat="45.13155" lon="5.9242">
        <ele>2199</ele>
        <time>2013-09-26T16:53:04Z</time>
      </trkpt>
      <trkpt lat="45.13151" lon="5.92417">
        <ele>2189</ele>
        <time>2013-09-26T16:53:13Z</time>
      </trkpt>
      <trkpt lat="45.13151" lon="5.92416">
        <ele>2189</ele>
        <time>2013-09-26T16:53:14Z</time>
      </trkpt>
      <trkpt lat="45.13148" lon="5.92403">
        <ele>2187</ele>
        <time>2013-09-26T16:53:24Z</time>
      </trkpt>
      <trkpt lat="45.13147" lon="5.92392">
        <ele>2185</ele>
        <time>2013-09-26T16:53:28Z</time>
      </trkpt>
      <trkpt lat="45.13146" lon="5.92382">
        <ele>2183</ele>
        <time>2013-09-26T16:53:32Z</time>
      </trkpt>
      <trkpt lat="45.13139" lon="5.92373">
        <ele>2181</ele>
        <time>2013-09-26T16:53:37Z</time>
      </trkpt>
      <trkpt lat="45.13135" lon="5.92365">
        <ele>2180</ele>
        <time>2013-09-26T16:53:44Z</time>
      </trkpt>
      <trkpt lat="45.13133" lon="5.92362">
        <ele>2179</ele>
        <time>2013-09-26T16:53:49Z</time>
      </trkpt>
      <trkpt lat="45.13135" lon="5.92349">
        <ele>2177</ele>
        <time>2013-09-26T16:54:01Z</time>
      </trkpt>
      <trkpt lat="45.13137" lon="5.92337">
        <ele>2175</ele>
        <time>2013-09-26T16:54:08Z</time>
      </trkpt>
      <trkpt lat="45.13139" lon="5.92326">
        <ele>2157</ele>
        <time>2013-09-26T16:54:12Z</time>
      </trkpt>
      <trkpt lat="45.1314" lon="5.92323">
        <ele>2156</ele>
        <time>2013-09-26T16:54:13Z</time>
      </trkpt>
      <trkpt lat="45.13139" lon="5.9232">
        <ele>2156</ele>
        <time>2013-09-26T16:54:15Z</time>
      </trkpt>
      <trkpt lat="45.13139" lon="5.92312">
        <ele>2155</ele>
        <time>2013-09-26T16:54:32Z</time>
      </trkpt>
      <trkpt lat="45.13141" lon="5.92306">
        <ele>2154</ele>
        <time>2013-09-26T16:54:38Z</time>
      </trkpt>
      <trkpt lat="45.13141" lon="5.92298">
        <ele>2152</ele>
        <time>2013-09-26T16:54:45Z</time>
      </trkpt>
      <trkpt lat="45.13139" lon="5.9229">
        <ele>2151</ele>
        <time>2013-09-26T16:54:52Z</time>
      </trkpt>
      <trkpt lat="45.13137" lon="5.92275">
        <ele>2148</ele>
        <time>2013-09-26T16:55:03Z</time>
      </trkpt>
      <trkpt lat="45.13137" lon="5.92272">
        <ele>2148</ele>
        <time>2013-09-26T16:55:05Z</time>
      </trkpt>
      <trkpt lat="45.1314" lon="5.92259">
        <ele>2145</ele>
        <time>2013-09-26T16:55:24Z</time>
      </trkpt>
      <trkpt lat="45.13138" lon="5.92253">
        <ele>2145</ele>
        <time>2013-09-26T16:55:39Z</time>
      </trkpt>
      <trkpt lat="45.13134" lon="5.92239">
        <ele>2123</ele>
        <time>2013-09-26T16:55:53Z</time>
      </trkpt>
      <trkpt lat="45.13134" lon="5.92238">
        <ele>2123</ele>
        <time>2013-09-26T16:55:55Z</time>
      </trkpt>
      <trkpt lat="45.13133" lon="5.92231">
        <ele>2122</ele>
        <time>2013-09-26T16:56:04Z</time>
      </trkpt>
      <trkpt lat="45.13137" lon="5.92227">
        <ele>2121</ele>
        <time>2013-09-26T16:56:14Z</time>
      </trkpt>
      <trkpt lat="45.1314" lon="5.92218">
        <ele>2118</ele>
        <time>2013-09-26T16:56:25Z</time>
      </trkpt>
      <trkpt lat="45.13138" lon="5.9221">
        <ele>2116</ele>
        <time>2013-09-26T16:56:33Z</time>
      </trkpt>
      <trkpt lat="45.1314" lon="5.922">
        <ele>2113</ele>
        <time>2013-09-26T16:56:45Z</time>
      </trkpt>
      <trkpt lat="45.1314" lon="5.92188">
        <ele>2109</ele>
        <time>2013-09-26T16:56:56Z</time>
      </trkpt>
      <trkpt lat="45.13135" lon="5.9218">
        <ele>2108</ele>
        <time>2013-09-26T16:57:15Z</time>
      </trkpt>
      <trkpt lat="45.13128" lon="5.92168">
        <ele>2108</ele>
        <time>2013-09-26T16:57:30Z</time>
      </trkpt>
      <trkpt lat="45.13134" lon="5.92162">
        <ele>2082</ele>
        <time>2013-09-26T16:57:45Z</time>
      </trkpt>
      <trkpt lat="45.13136" lon="5.92158">
        <ele>2081</ele>
        <time>2013-09-26T16:57:50Z</time>
      </trkpt>
      <trkpt lat="45.13139" lon="5.92151">
        <ele>2080</ele>
        <time>2013-09-26T16:57:59Z</time>
      </trkpt>
      <trkpt lat="45.13143" lon="5.92146">
        <ele>2079</ele>
        <time>2013-09-26T16:58:05Z</time>
      </trkpt>
      <trkpt lat="45.13145" lon="5.92144">
        <ele>2079</ele>
        <time>2013-09-26T16:58:07Z</time>
      </trkpt>
      <trkpt lat="45.13149" lon="5.92137">
        <ele>2077</ele>
        <time>2013-09-26T16:58:14Z</time>
      </trkpt>
      <trkpt lat="45.13151" lon="5.92133">
        <ele>2076</ele>
        <time>2013-09-26T16:58:16Z</time>
      </trkpt>
      <trkpt lat="45.13157" lon="5.92129">
        <ele>2074</ele>
        <time>2013-09-26T16:58:21Z</time>
      </trkpt>
      <trkpt lat="45.13158" lon="5.92128">
        <ele>2074</ele>
        <time>2013-09-26T16:58:23Z</time>
      </trkpt>
      <trkpt lat="45.13152" lon="5.9212">
        <ele>2072</ele>
        <time>2013-09-26T16:58:31Z</time>
      </trkpt>
      <trkpt lat="45.13155" lon="5.9212">
        <ele>2071</ele>
        <time>2013-09-26T16:58:49Z</time>
      </trkpt>
      <trkpt lat="45.13158" lon="5.92115">
        <ele>2069</ele>
        <time>2013-09-26T16:58:55Z</time>
      </trkpt>
      <trkpt lat="45.13155" lon="5.92105">
        <ele>2065</ele>
        <time>2013-09-26T16:59:00Z</time>
      </trkpt>
      <trkpt lat="45.13149" lon="5.92096">
        <ele>2063</ele>
        <time>2013-09-26T16:59:05Z</time>
      </trkpt>
      <trkpt lat="45.1315" lon="5.92095">
        <ele>2063</ele>
        <time>2013-09-26T16:59:06Z</time>
      </trkpt>
      <trkpt lat="45.13152" lon="5.92093">
        <ele>2061</ele>
        <time>2013-09-26T16:59:10Z</time>
      </trkpt>
      <trkpt lat="45.13149" lon="5.92093">
        <ele>2062</ele>
        <time>2013-09-26T16:59:29Z</time>
      </trkpt>
      <trkpt lat="45.13147" lon="5.92085">
        <ele>2061</ele>
        <time>2013-09-26T16:59:39Z</time>
      </trkpt>
      <trkpt lat="45.13149" lon="5.92078">
        <ele>2043</ele>
        <time>2013-09-26T16:59:46Z</time>
      </trkpt>
      <trkpt lat="45.13151" lon="5.92076">
        <ele>2043</ele>
        <time>2013-09-26T16:59:48Z</time>
      </trkpt>
      <trkpt lat="45.13154" lon="5.92067">
        <ele>2042</ele>
        <time>2013-09-26T16:59:54Z</time>
      </trkpt>
      <trkpt lat="45.13155" lon="5.92063">
        <ele>2041</ele>
        <time>2013-09-26T16:59:59Z</time>
      </trkpt>
      <trkpt lat="45.13161" lon="5.9206">
        <ele>2040</ele>
        <time>2013-09-26T17:00:19Z</time>
      </trkpt>
      <trkpt lat="45.1316" lon="5.92055">
        <ele>2039</ele>
        <time>2013-09-26T17:00:23Z</time>
      </trkpt>
      <trkpt lat="45.13163" lon="5.92046">
        <ele>2037</ele>
        <time>2013-09-26T17:00:28Z</time>
      </trkpt>
      <trkpt lat="45.1316" lon="5.92036">
        <ele>2035</ele>
        <time>2013-09-26T17:00:32Z</time>
      </trkpt>
      <trkpt lat="45.13156" lon="5.92033">
        <ele>2034</ele>
        <time>2013-09-26T17:00:36Z</time>
      </trkpt>
      <trkpt lat="45.13156" lon="5.9203">
        <ele>2033</ele>
        <time>2013-09-26T17:00:39Z</time>
      </trkpt>
      <trkpt lat="45.13151" lon="5.92027">
        <ele>2033</ele>
        <time>2013-09-26T17:00:44Z</time>
      </trkpt>
      <trkpt lat="45.13153" lon="5.92022">
        <ele>2031</ele>
        <time>2013-09-26T17:00:52Z</time>
      </trkpt>
      <trkpt lat="45.1315" lon="5.92013">
        <ele>2029</ele>
        <time>2013-09-26T17:00:59Z</time>
      </trkpt>
      <trkpt lat="45.13151" lon="5.92008">
        <ele>2027</ele>
        <time>2013-09-26T17:01:03Z</time>
      </trkpt>
      <trkpt lat="45.13147" lon="5.92">
        <ele>2027</ele>
        <time>2013-09-26T17:01:09Z</time>
      </trkpt>
      <trkpt lat="45.13147" lon="5.91998">
        <ele>2015</ele>
        <time>2013-09-26T17:01:12Z</time>
      </trkpt>
      <trkpt lat="45.13145" lon="5.91996">
        <ele>2015</ele>
        <time>2013-09-26T17:01:14Z</time>
      </trkpt>
      <trkpt lat="45.13135" lon="5.91988">
        <ele>2015</ele>
        <time>2013-09-26T17:01:20Z</time>
      </trkpt>
      <trkpt lat="45.13134" lon="5.91986">
        <ele>2015</ele>
        <time>2013-09-26T17:01:23Z</time>
      </trkpt>
      <trkpt lat="45.13135" lon="5.91982">
        <ele>2014</ele>
        <time>2013-09-26T17:01:26Z</time>
      </trkpt>
      <trkpt lat="45.13133" lon="5.91974">
        <ele>2014</ele>
        <time>2013-09-26T17:01:33Z</time>
      </trkpt>
      <trkpt lat="45.13133" lon="5.91972">
        <ele>2014</ele>
        <time>2013-09-26T17:01:35Z</time>
      </trkpt>
      <trkpt lat="45.13129" lon="5.91961">
        <ele>2013</ele>
        <time>2013-09-26T17:01:41Z</time>
      </trkpt>
      <trkpt lat="45.13127" lon="5.9196">
        <ele>2013</ele>
        <time>2013-09-26T17:01:55Z</time>
      </trkpt>
      <trkpt lat="45.13127" lon="5.91955">
        <ele>2012</ele>
        <time>2013-09-26T17:02:24Z</time>
      </trkpt>
      <trkpt lat="45.1313" lon="5.91922">
        <ele>2010</ele>
        <time>2013-09-26T17:02:43Z</time>
      </trkpt>
      <trkpt lat="45.1313" lon="5.9192">
        <ele>2009</ele>
        <time>2013-09-26T17:02:44Z</time>
      </trkpt>
      <trkpt lat="45.13128" lon="5.91903">
        <ele>2002</ele>
        <time>2013-09-26T17:02:53Z</time>
      </trkpt>
      <trkpt lat="45.1314" lon="5.91888">
        <ele>2001</ele>
        <time>2013-09-26T17:03:06Z</time>
      </trkpt>
      <trkpt lat="45.1315" lon="5.91883">
        <ele>2001</ele>
        <time>2013-09-26T17:03:18Z</time>
      </trkpt>
      <trkpt lat="45.13156" lon="5.91871">
        <ele>2001</ele>
        <time>2013-09-26T17:03:24Z</time>
      </trkpt>
      <trkpt lat="45.13159" lon="5.91856">
        <ele>2000</ele>
        <time>2013-09-26T17:03:41Z</time>
      </trkpt>
      <trkpt lat="45.13158" lon="5.91851">
        <ele>2000</ele>
        <time>2013-09-26T17:03:47Z</time>
      </trkpt>
      <trkpt lat="45.13164" lon="5.9182">
        <ele>1998</ele>
        <time>2013-09-26T17:04:01Z</time>
      </trkpt>
      <trkpt lat="45.1317" lon="5.9181">
        <ele>1999</ele>
        <time>2013-09-26T17:04:06Z</time>
      </trkpt>
      <trkpt lat="45.13182" lon="5.91791">
        <ele>1999</ele>
        <time>2013-09-26T17:04:19Z</time>
      </trkpt>
      <trkpt lat="45.13183" lon="5.91789">
        <ele>1999</ele>
        <time>2013-09-26T17:04:21Z</time>
      </trkpt>
      <trkpt lat="45.13182" lon="5.91785">
        <ele>1999</ele>
        <time>2013-09-26T17:04:24Z</time>
      </trkpt>
      <trkpt lat="45.13182" lon="5.91766">
        <ele>1999</ele>
        <time>2013-09-26T17:04:34Z</time>
      </trkpt>
      <trkpt lat="45.13182" lon="5.91761">
        <ele>1999</ele>
        <time>2013-09-26T17:04:38Z</time>
      </trkpt>
      <trkpt lat="45.13185" lon="5.91751">
        <ele>1999</ele>
        <time>2013-09-26T17:04:46Z</time>
      </trkpt>
      <trkpt lat="45.1319" lon="5.91734">
        <ele>1999</ele>
        <time>2013-09-26T17:04:57Z</time>
      </trkpt>
      <trkpt lat="45.1319" lon="5.91733">
        <ele>1999</ele>
        <time>2013-09-26T17:04:58Z</time>
      </trkpt>
      <trkpt lat="45.13188" lon="5.91718">
        <ele>1999</ele>
        <time>2013-09-26T17:05:08Z</time>
      </trkpt>
      <trkpt lat="45.13191" lon="5.91702">
        <ele>1999</ele>
        <time>2013-09-26T17:05:17Z</time>
      </trkpt>
      <trkpt lat="45.132" lon="5.9169">
        <ele>1999</ele>
        <time>2013-09-26T17:05:25Z</time>
      </trkpt>
      <trkpt lat="45.13204" lon="5.91681">
        <ele>1999</ele>
        <time>2013-09-26T17:05:30Z</time>
      </trkpt>
      <trkpt lat="45.13206" lon="5.91657">
        <ele>1999</ele>
        <time>2013-09-26T17:05:44Z</time>
      </trkpt>
      <trkpt lat="45.13209" lon="5.91644">
        <ele>1999</ele>
        <time>2013-09-26T17:05:52Z</time>
      </trkpt>
      <trkpt lat="45.13231" lon="5.91634">
        <ele>2000</ele>
        <time>2013-09-26T17:06:06Z</time>
      </trkpt>
      <trkpt lat="45.13241" lon="5.91633">
        <ele>2000</ele>
        <time>2013-09-26T17:06:12Z</time>
      </trkpt>
      <trkpt lat="45.13244" lon="5.91631">
        <ele>2000</ele>
        <time>2013-09-26T17:06:14Z</time>
      </trkpt>
      <trkpt lat="45.13258" lon="5.91631">
        <ele>2008</ele>
        <time>2013-09-26T17:06:22Z</time>
      </trkpt>
      <trkpt lat="45.13262" lon="5.91631">
        <ele>2008</ele>
        <time>2013-09-26T17:06:36Z</time>
      </trkpt>
      <trkpt lat="45.13267" lon="5.91626">
        <ele>2008</ele>
        <time>2013-09-26T17:07:06Z</time>
      </trkpt>
      <trkpt lat="45.13282" lon="5.91602">
        <ele>2009</ele>
        <time>2013-09-26T17:07:23Z</time>
      </trkpt>
      <trkpt lat="45.13284" lon="5.91601">
        <ele>2009</ele>
        <time>2013-09-26T17:07:25Z</time>
      </trkpt>
      <trkpt lat="45.1329" lon="5.91592">
        <ele>2010</ele>
        <time>2013-09-26T17:07:37Z</time>
      </trkpt>
      <trkpt lat="45.13284" lon="5.91588">
        <ele>2009</ele>
        <time>2013-09-26T17:07:47Z</time>
      </trkpt>
      <trkpt lat="45.13281" lon="5.91579">
        <ele>2006</ele>
        <time>2013-09-26T17:07:54Z</time>
      </trkpt>
      <trkpt lat="45.13265" lon="5.91558">
        <ele>2005</ele>
        <time>2013-09-26T17:08:14Z</time>
      </trkpt>
      <trkpt lat="45.13263" lon="5.91545">
        <ele>2005</ele>
        <time>2013-09-26T17:08:24Z</time>
      </trkpt>
      <trkpt lat="45.13261" lon="5.91544">
        <ele>2005</ele>
        <time>2013-09-26T17:08:44Z</time>
      </trkpt>
      <trkpt lat="45.1326" lon="5.91546">
        <ele>2005</ele>
        <time>2013-09-26T17:08:46Z</time>
      </trkpt>
      <trkpt lat="45.13255" lon="5.91557">
        <ele>2004</ele>
        <time>2013-09-26T17:08:59Z</time>
      </trkpt>
      <trkpt lat="45.13255" lon="5.91559">
        <ele>2004</ele>
        <time>2013-09-26T17:09:00Z</time>
      </trkpt>
      <trkpt lat="45.13256" lon="5.91567">
        <ele>2004</ele>
        <time>2013-09-26T17:09:05Z</time>
      </trkpt>
      <trkpt lat="45.13259" lon="5.91567">
        <ele>2004</ele>
        <time>2013-09-26T17:09:10Z</time>
      </trkpt>
      <trkpt lat="45.13263" lon="5.91572">
        <ele>2004</ele>
        <time>2013-09-26T17:09:14Z</time>
      </trkpt>
      <trkpt lat="45.13265" lon="5.91582">
        <ele>2004</ele>
        <time>2013-09-26T17:09:21Z</time>
      </trkpt>
      <trkpt lat="45.13265" lon="5.91584">
        <ele>2006</ele>
        <time>2013-09-26T17:09:23Z</time>
      </trkpt>
      <trkpt lat="45.13261" lon="5.91592">
        <ele>2006</ele>
        <time>2013-09-26T17:09:28Z</time>
      </trkpt>
      <trkpt lat="45.1326" lon="5.91591">
        <ele>2005</ele>
        <time>2013-09-26T17:09:29Z</time>
      </trkpt>
      <trkpt lat="45.13247" lon="5.91579">
        <ele>2001</ele>
        <time>2013-09-26T17:09:40Z</time>
      </trkpt>
      <trkpt lat="45.13234" lon="5.91559">
        <ele>1999</ele>
        <time>2013-09-26T17:09:54Z</time>
      </trkpt>
      <trkpt lat="45.1323" lon="5.91543">
        <ele>1998</ele>
        <time>2013-09-26T17:10:03Z</time>
      </trkpt>
      <trkpt lat="45.13235" lon="5.91528">
        <ele>1998</ele>
        <time>2013-09-26T17:10:14Z</time>
      </trkpt>
      <trkpt lat="45.1324" lon="5.91523">
        <ele>1998</ele>
        <time>2013-09-26T17:10:21Z</time>
      </trkpt>
      <trkpt lat="45.13246" lon="5.91519">
        <ele>1998</ele>
        <time>2013-09-26T17:10:32Z</time>
      </trkpt>
      <trkpt lat="45.13246" lon="5.91515">
        <ele>1998</ele>
        <time>2013-09-26T17:10:35Z</time>
      </trkpt>
      <trkpt lat="45.13255" lon="5.91507">
        <ele>2000</ele>
        <time>2013-09-26T17:10:47Z</time>
      </trkpt>
      <trkpt lat="45.13248" lon="5.91512">
        <ele>1997</ele>
        <time>2013-09-26T17:11:04Z</time>
      </trkpt>
      <trkpt lat="45.13237" lon="5.91513">
        <ele>1998</ele>
        <time>2013-09-26T17:11:15Z</time>
      </trkpt>
      <trkpt lat="45.13223" lon="5.91516">
        <ele>1998</ele>
        <time>2013-09-26T17:11:30Z</time>
      </trkpt>
      <trkpt lat="45.13225" lon="5.91519">
        <ele>1998</ele>
        <time>2013-09-26T17:11:43Z</time>
      </trkpt>
      <trkpt lat="45.13232" lon="5.91524">
        <ele>1998</ele>
        <time>2013-09-26T17:11:48Z</time>
      </trkpt>
      <trkpt lat="45.13232" lon="5.91541">
        <ele>1998</ele>
        <time>2013-09-26T17:11:54Z</time>
      </trkpt>
      <trkpt lat="45.1323" lon="5.91549">
        <ele>1998</ele>
        <time>2013-09-26T17:11:57Z</time>
      </trkpt>
      <trkpt lat="45.13232" lon="5.91559">
        <ele>1999</ele>
        <time>2013-09-26T17:12:01Z</time>
      </trkpt>
      <trkpt lat="45.13232" lon="5.9156">
        <ele>1999</ele>
        <time>2013-09-26T17:12:02Z</time>
      </trkpt>
      <trkpt lat="45.13234" lon="5.91567">
        <ele>1999</ele>
        <time>2013-09-26T17:12:06Z</time>
      </trkpt>
      <trkpt lat="45.13234" lon="5.91599">
        <ele>2000</ele>
        <time>2013-09-26T17:12:20Z</time>
      </trkpt>
      <trkpt lat="45.13234" lon="5.91605">
        <ele>2000</ele>
        <time>2013-09-26T17:12:23Z</time>
      </trkpt>
      <trkpt lat="45.13232" lon="5.91614">
        <ele>2000</ele>
        <time>2013-09-26T17:12:28Z</time>
      </trkpt>
      <trkpt lat="45.13228" lon="5.91622">
        <ele>2000</ele>
        <time>2013-09-26T17:12:35Z</time>
      </trkpt>
      <trkpt lat="45.13228" lon="5.91624">
        <ele>2000</ele>
        <time>2013-09-26T17:12:36Z</time>
      </trkpt>
      <trkpt lat="45.13218" lon="5.91641">
        <ele>1999</ele>
        <time>2013-09-26T17:12:48Z</time>
      </trkpt>
      <trkpt lat="45.13216" lon="5.91649">
        <ele>1999</ele>
        <time>2013-09-26T17:12:53Z</time>
      </trkpt>
      <trkpt lat="45.1321" lon="5.9167">
        <ele>2000</ele>
        <time>2013-09-26T17:13:04Z</time>
      </trkpt>
      <trkpt lat="45.13207" lon="5.91682">
        <ele>1999</ele>
        <time>2013-09-26T17:13:10Z</time>
      </trkpt>
      <trkpt lat="45.13198" lon="5.91698">
        <ele>1999</ele>
        <time>2013-09-26T17:13:22Z</time>
      </trkpt>
      <trkpt lat="45.13199" lon="5.91712">
        <ele>1999</ele>
        <time>2013-09-26T17:13:30Z</time>
      </trkpt>
      <trkpt lat="45.1319" lon="5.91739">
        <ele>1999</ele>
        <time>2013-09-26T17:13:44Z</time>
      </trkpt>
      <trkpt lat="45.13189" lon="5.91741">
        <ele>1999</ele>
        <time>2013-09-26T17:13:45Z</time>
      </trkpt>
      <trkpt lat="45.1318" lon="5.91732">
        <ele>1999</ele>
        <time>2013-09-26T17:13:59Z</time>
      </trkpt>
      <trkpt lat="45.13179" lon="5.91733">
        <ele>1998</ele>
        <time>2013-09-26T17:14:28Z</time>
      </trkpt>
      <trkpt lat="45.13177" lon="5.91733">
        <ele>1998</ele>
        <time>2013-09-26T17:14:31Z</time>
      </trkpt>
      <trkpt lat="45.13169" lon="5.91728">
        <ele>1998</ele>
        <time>2013-09-26T17:14:38Z</time>
      </trkpt>
      <trkpt lat="45.1315" lon="5.91719">
        <ele>1997</ele>
        <time>2013-09-26T17:14:53Z</time>
      </trkpt>
      <trkpt lat="45.13136" lon="5.91717">
        <ele>1997</ele>
        <time>2013-09-26T17:15:01Z</time>
      </trkpt>
      <trkpt lat="45.13119" lon="5.91737">
        <ele>1997</ele>
        <time>2013-09-26T17:15:16Z</time>
      </trkpt>
      <trkpt lat="45.13115" lon="5.91737">
        <ele>1997</ele>
        <time>2013-09-26T17:15:19Z</time>
      </trkpt>
      <trkpt lat="45.13108" lon="5.91732">
        <ele>1997</ele>
        <time>2013-09-26T17:15:25Z</time>
      </trkpt>
      <trkpt lat="45.13102" lon="5.91722">
        <ele>1997</ele>
        <time>2013-09-26T17:15:34Z</time>
      </trkpt>
      <trkpt lat="45.13107" lon="5.91705">
        <ele>1997</ele>
        <time>2013-09-26T17:15:45Z</time>
      </trkpt>
      <trkpt lat="45.13105" lon="5.91705">
        <ele>1997</ele>
        <time>2013-09-26T17:16:07Z</time>
      </trkpt>
      <trkpt lat="45.1309" lon="5.91713">
        <ele>1997</ele>
        <time>2013-09-26T17:16:19Z</time>
      </trkpt>
      <trkpt lat="45.13086" lon="5.91709">
        <ele>1997</ele>
        <time>2013-09-26T17:16:26Z</time>
      </trkpt>
      <trkpt lat="45.13075" lon="5.91678">
        <ele>2001</ele>
        <time>2013-09-26T17:16:41Z</time>
      </trkpt>
      <trkpt lat="45.13067" lon="5.9164">
        <ele>2003</ele>
        <time>2013-09-26T17:16:53Z</time>
      </trkpt>
      <trkpt lat="45.13059" lon="5.91597">
        <ele>2003</ele>
        <time>2013-09-26T17:17:03Z</time>
      </trkpt>
      <trkpt lat="45.13053" lon="5.9157">
        <ele>2004</ele>
        <time>2013-09-26T17:17:14Z</time>
      </trkpt>
      <trkpt lat="45.13043" lon="5.91549">
        <ele>2006</ele>
        <time>2013-09-26T17:17:25Z</time>
      </trkpt>
      <trkpt lat="45.13039" lon="5.91535">
        <ele>2006</ele>
        <time>2013-09-26T17:17:30Z</time>
      </trkpt>
      <trkpt lat="45.13036" lon="5.91522">
        <ele>2007</ele>
        <time>2013-09-26T17:17:35Z</time>
      </trkpt>
      <trkpt lat="45.13039" lon="5.91484">
        <ele>2006</ele>
        <time>2013-09-26T17:17:47Z</time>
      </trkpt>
      <trkpt lat="45.13035" lon="5.91474">
        <ele>2006</ele>
        <time>2013-09-26T17:17:53Z</time>
      </trkpt>
      <trkpt lat="45.13033" lon="5.91454">
        <ele>2006</ele>
        <time>2013-09-26T17:18:02Z</time>
      </trkpt>
      <trkpt lat="45.13035" lon="5.91436">
        <ele>2006</ele>
        <time>2013-09-26T17:18:07Z</time>
      </trkpt>
      <trkpt lat="45.13035" lon="5.91422">
        <ele>2006</ele>
        <time>2013-09-26T17:18:12Z</time>
      </trkpt>
      <trkpt lat="45.13034" lon="5.91418">
        <ele>2006</ele>
        <time>2013-09-26T17:18:14Z</time>
      </trkpt>
      <trkpt lat="45.13036" lon="5.91399">
        <ele>2005</ele>
        <time>2013-09-26T17:18:26Z</time>
      </trkpt>
      <trkpt lat="45.13037" lon="5.91399">
        <ele>2005</ele>
        <time>2013-09-26T17:18:45Z</time>
      </trkpt>
      <trkpt lat="45.13038" lon="5.91381">
        <ele>2005</ele>
        <time>2013-09-26T17:18:50Z</time>
      </trkpt>
      <trkpt lat="45.13036" lon="5.91337">
        <ele>2006</ele>
        <time>2013-09-26T17:19:01Z</time>
      </trkpt>
      <trkpt lat="45.13038" lon="5.91323">
        <ele>2008</ele>
        <time>2013-09-26T17:19:05Z</time>
      </trkpt>
      <trkpt lat="45.13043" lon="5.91297">
        <ele>2007</ele>
        <time>2013-09-26T17:19:17Z</time>
      </trkpt>
      <trkpt lat="45.13044" lon="5.91293">
        <ele>2007</ele>
        <time>2013-09-26T17:19:19Z</time>
      </trkpt>
      <trkpt lat="45.13048" lon="5.9127">
        <ele>2007</ele>
        <time>2013-09-26T17:19:28Z</time>
      </trkpt>
      <trkpt lat="45.13058" lon="5.91245">
        <ele>2011</ele>
        <time>2013-09-26T17:19:38Z</time>
      </trkpt>
      <trkpt lat="45.13072" lon="5.91234">
        <ele>2009</ele>
        <time>2013-09-26T17:19:48Z</time>
      </trkpt>
      <trkpt lat="45.13073" lon="5.91227">
        <ele>2011</ele>
        <time>2013-09-26T17:19:52Z</time>
      </trkpt>
      <trkpt lat="45.13078" lon="5.91221">
        <ele>2012</ele>
        <time>2013-09-26T17:19:56Z</time>
      </trkpt>
      <trkpt lat="45.13089" lon="5.9121">
        <ele>2005</ele>
        <time>2013-09-26T17:20:06Z</time>
      </trkpt>
      <trkpt lat="45.13093" lon="5.91207">
        <ele>2005</ele>
        <time>2013-09-26T17:20:09Z</time>
      </trkpt>
      <trkpt lat="45.13098" lon="5.91203">
        <ele>2006</ele>
        <time>2013-09-26T17:20:13Z</time>
      </trkpt>
      <trkpt lat="45.13109" lon="5.91199">
        <ele>2006</ele>
        <time>2013-09-26T17:20:20Z</time>
      </trkpt>
      <trkpt lat="45.1312" lon="5.912">
        <ele>2005</ele>
        <time>2013-09-26T17:20:26Z</time>
      </trkpt>
      <trkpt lat="45.13134" lon="5.91193">
        <ele>2005</ele>
        <time>2013-09-26T17:20:35Z</time>
      </trkpt>
      <trkpt lat="45.13138" lon="5.91191">
        <ele>2005</ele>
        <time>2013-09-26T17:20:38Z</time>
      </trkpt>
      <trkpt lat="45.13145" lon="5.91181">
        <ele>2006</ele>
        <time>2013-09-26T17:20:46Z</time>
      </trkpt>
      <trkpt lat="45.13146" lon="5.91171">
        <ele>2006</ele>
        <time>2013-09-26T17:20:51Z</time>
      </trkpt>
      <trkpt lat="45.13158" lon="5.91159">
        <ele>2013</ele>
        <time>2013-09-26T17:20:58Z</time>
      </trkpt>
      <trkpt lat="45.13164" lon="5.91148">
        <ele>2015</ele>
        <time>2013-09-26T17:21:04Z</time>
      </trkpt>
      <trkpt lat="45.13172" lon="5.91125">
        <ele>2015</ele>
        <time>2013-09-26T17:21:14Z</time>
      </trkpt>
      <trkpt lat="45.13173" lon="5.91121">
        <ele>2015</ele>
        <time>2013-09-26T17:21:16Z</time>
      </trkpt>
      <trkpt lat="45.13175" lon="5.91109">
        <ele>2017</ele>
        <time>2013-09-26T17:21:22Z</time>
      </trkpt>
      <trkpt lat="45.1318" lon="5.91098">
        <ele>2018</ele>
        <time>2013-09-26T17:21:29Z</time>
      </trkpt>
      <trkpt lat="45.13184" lon="5.91079">
        <ele>2022</ele>
        <time>2013-09-26T17:21:41Z</time>
      </trkpt>
      <trkpt lat="45.13186" lon="5.91069">
        <ele>2022</ele>
        <time>2013-09-26T17:21:47Z</time>
      </trkpt>
      <trkpt lat="45.13188" lon="5.91057">
        <ele>2022</ele>
        <time>2013-09-26T17:21:53Z</time>
      </trkpt>
      <trkpt lat="45.1319" lon="5.91048">
        <ele>2023</ele>
        <time>2013-09-26T17:21:58Z</time>
      </trkpt>
      <trkpt lat="45.13195" lon="5.91033">
        <ele>2023</ele>
        <time>2013-09-26T17:22:07Z</time>
      </trkpt>
      <trkpt lat="45.13196" lon="5.91029">
        <ele>2023</ele>
        <time>2013-09-26T17:22:09Z</time>
      </trkpt>
      <trkpt lat="45.13195" lon="5.9102">
        <ele>2023</ele>
        <time>2013-09-26T17:22:15Z</time>
      </trkpt>
      <trkpt lat="45.13205" lon="5.91003">
        <ele>2023</ele>
        <time>2013-09-26T17:22:29Z</time>
      </trkpt>
      <trkpt lat="45.1321" lon="5.90998">
        <ele>2022</ele>
        <time>2013-09-26T17:22:35Z</time>
      </trkpt>
      <trkpt lat="45.13217" lon="5.90998">
        <ele>2022</ele>
        <time>2013-09-26T17:22:41Z</time>
      </trkpt>
      <trkpt lat="45.1322" lon="5.90996">
        <ele>2022</ele>
        <time>2013-09-26T17:23:01Z</time>
      </trkpt>
      <trkpt lat="45.1322" lon="5.90995">
        <ele>2022</ele>
        <time>2013-09-26T17:23:31Z</time>
      </trkpt>
      <trkpt lat="45.1322" lon="5.90995">
        <ele>2022</ele>
        <time>2013-09-26T17:23:52Z</time>
      </trkpt>
      <trkpt lat="45.1322" lon="5.90994">
        <ele>2022</ele>
        <time>2013-09-26T17:24:19Z</time>
      </trkpt>
      <trkpt lat="45.13221" lon="5.90993">
        <ele>2022</ele>
        <time>2013-09-26T17:24:43Z</time>
      </trkpt>
      <trkpt lat="45.13223" lon="5.90995">
        <ele>2022</ele>
        <time>2013-09-26T17:25:16Z</time>
      </trkpt>
      <trkpt lat="45.13221" lon="5.90999">
        <ele>2022</ele>
        <time>2013-09-26T17:25:39Z</time>
      </trkpt>
      <trkpt lat="45.13221" lon="5.90994">
        <ele>2022</ele>
        <time>2013-09-26T17:26:27Z</time>
      </trkpt>
      <trkpt lat="45.13222" lon="5.90991">
        <ele>2022</ele>
        <time>2013-09-26T17:27:09Z</time>
      </trkpt>
      <trkpt lat="45.13221" lon="5.90991">
        <ele>2022</ele>
        <time>2013-09-26T17:27:41Z</time>
      </trkpt>
      <trkpt lat="45.13222" lon="5.90991">
        <ele>2022</ele>
        <time>2013-09-26T17:28:13Z</time>
      </trkpt>
      <trkpt lat="45.13221" lon="5.90992">
        <ele>2022</ele>
        <time>2013-09-26T17:28:47Z</time>
      </trkpt>
      <trkpt lat="45.13222" lon="5.9099">
        <ele>2022</ele>
        <time>2013-09-26T17:29:21Z</time>
      </trkpt>
      <trkpt lat="45.13222" lon="5.90988">
        <ele>2021</ele>
        <time>2013-09-26T17:29:52Z</time>
      </trkpt>
      <trkpt lat="45.13221" lon="5.90988">
        <ele>2022</ele>
        <time>2013-09-26T17:30:22Z</time>
      </trkpt>
      <trkpt lat="45.1322" lon="5.90988">
        <ele>2022</ele>
        <time>2013-09-26T17:30:52Z</time>
      </trkpt>
      <trkpt lat="45.1322" lon="5.90988">
        <ele>2022</ele>
        <time>2013-09-26T17:31:22Z</time>
      </trkpt>
      <trkpt lat="45.13218" lon="5.90987">
        <ele>2022</ele>
        <time>2013-09-26T17:31:54Z</time>
      </trkpt>
      <trkpt lat="45.13219" lon="5.90988">
        <ele>2022</ele>
        <time>2013-09-26T17:32:26Z</time>
      </trkpt>
      <trkpt lat="45.13219" lon="5.9099">
        <ele>2022</ele>
        <time>2013-09-26T17:32:56Z</time>
      </trkpt>
      <trkpt lat="45.13221" lon="5.90998">
        <ele>2022</ele>
        <time>2013-09-26T17:33:21Z</time>
      </trkpt>
      <trkpt lat="45.13228" lon="5.90997">
        <ele>2021</ele>
        <time>2013-09-26T17:33:43Z</time>
      </trkpt>
      <trkpt lat="45.13229" lon="5.90998">
        <ele>2021</ele>
        <time>2013-09-26T17:33:44Z</time>
      </trkpt>
      <trkpt lat="45.13238" lon="5.91003">
        <ele>2021</ele>
        <time>2013-09-26T17:33:54Z</time>
      </trkpt>
      <trkpt lat="45.13245" lon="5.91003">
        <ele>2020</ele>
        <time>2013-09-26T17:34:00Z</time>
      </trkpt>
      <trkpt lat="45.13249" lon="5.91002">
        <ele>2020</ele>
        <time>2013-09-26T17:34:03Z</time>
      </trkpt>
      <trkpt lat="45.13256" lon="5.91002">
        <ele>2018</ele>
        <time>2013-09-26T17:34:16Z</time>
      </trkpt>
      <trkpt lat="45.13256" lon="5.91018">
        <ele>2015</ele>
        <time>2013-09-26T17:34:31Z</time>
      </trkpt>
      <trkpt lat="45.13257" lon="5.91022">
        <ele>2014</ele>
        <time>2013-09-26T17:34:47Z</time>
      </trkpt>
      <trkpt lat="45.13259" lon="5.91022">
        <ele>2014</ele>
        <time>2013-09-26T17:35:21Z</time>
      </trkpt>
      <trkpt lat="45.13258" lon="5.91022">
        <ele>2014</ele>
        <time>2013-09-26T17:35:54Z</time>
      </trkpt>
      <trkpt lat="45.13256" lon="5.91016">
        <ele>2015</ele>
        <time>2013-09-26T17:36:19Z</time>
      </trkpt>
      <trkpt lat="45.13258" lon="5.9101">
        <ele>2016</ele>
        <time>2013-09-26T17:36:46Z</time>
      </trkpt>
      <trkpt lat="45.13259" lon="5.91009">
        <ele>2016</ele>
        <time>2013-09-26T17:37:21Z</time>
      </trkpt>
      <trkpt lat="45.13259" lon="5.9101">
        <ele>2016</ele>
        <time>2013-09-26T17:37:51Z</time>
      </trkpt>
      <trkpt lat="45.13253" lon="5.91008">
        <ele>2017</ele>
        <time>2013-09-26T17:38:06Z</time>
      </trkpt>
      <trkpt lat="45.13246" lon="5.91003">
        <ele>2020</ele>
        <time>2013-09-26T17:38:15Z</time>
      </trkpt>
      <trkpt lat="45.1324" lon="5.90999">
        <ele>2021</ele>
        <time>2013-09-26T17:38:26Z</time>
      </trkpt>
      <trkpt lat="45.13235" lon="5.91003">
        <ele>2021</ele>
        <time>2013-09-26T17:38:36Z</time>
      </trkpt>
      <trkpt lat="45.13234" lon="5.90999">
        <ele>2021</ele>
        <time>2013-09-26T17:38:38Z</time>
      </trkpt>
      <trkpt lat="45.13223" lon="5.91001">
        <ele>2022</ele>
        <time>2013-09-26T17:38:48Z</time>
      </trkpt>
      <trkpt lat="45.13221" lon="5.90995">
        <ele>2022</ele>
        <time>2013-09-26T17:39:00Z</time>
      </trkpt>
      <trkpt lat="45.13222" lon="5.90994">
        <ele>2022</ele>
        <time>2013-09-26T17:39:30Z</time>
      </trkpt>
      <trkpt lat="45.13213" lon="5.90994">
        <ele>2022</ele>
        <time>2013-09-26T17:39:55Z</time>
      </trkpt>
      <trkpt lat="45.13209" lon="5.90999">
        <ele>2023</ele>
        <time>2013-09-26T17:40:08Z</time>
      </trkpt>
      <trkpt lat="45.13199" lon="5.91007">
        <ele>2023</ele>
        <time>2013-09-26T17:40:15Z</time>
      </trkpt>
      <trkpt lat="45.13194" lon="5.91005">
        <ele>2024</ele>
        <time>2013-09-26T17:40:20Z</time>
      </trkpt>
      <trkpt lat="45.13187" lon="5.91005">
        <ele>2025</ele>
        <time>2013-09-26T17:40:29Z</time>
      </trkpt>
      <trkpt lat="45.13183" lon="5.91005">
        <ele>2025</ele>
        <time>2013-09-26T17:40:32Z</time>
      </trkpt>
      <trkpt lat="45.13174" lon="5.91001">
        <ele>2026</ele>
        <time>2013-09-26T17:40:42Z</time>
      </trkpt>
      <trkpt lat="45.13179" lon="5.90982">
        <ele>2025</ele>
        <time>2013-09-26T17:40:53Z</time>
      </trkpt>
      <trkpt lat="45.13178" lon="5.90979">
        <ele>2024</ele>
        <time>2013-09-26T17:40:55Z</time>
      </trkpt>
      <trkpt lat="45.13179" lon="5.90966">
        <ele>2024</ele>
        <time>2013-09-26T17:41:01Z</time>
      </trkpt>
      <trkpt lat="45.13182" lon="5.90938">
        <ele>2024</ele>
        <time>2013-09-26T17:41:13Z</time>
      </trkpt>
      <trkpt lat="45.13182" lon="5.90934">
        <ele>2024</ele>
        <time>2013-09-26T17:41:15Z</time>
      </trkpt>
      <trkpt lat="45.13184" lon="5.9091">
        <ele>2022</ele>
        <time>2013-09-26T17:41:27Z</time>
      </trkpt>
      <trkpt lat="45.13182" lon="5.90898">
        <ele>2021</ele>
        <time>2013-09-26T17:41:35Z</time>
      </trkpt>
      <trkpt lat="45.13184" lon="5.90889">
        <ele>2020</ele>
        <time>2013-09-26T17:41:40Z</time>
      </trkpt>
      <trkpt lat="45.1318" lon="5.90876">
        <ele>2020</ele>
        <time>2013-09-26T17:41:52Z</time>
      </trkpt>
      <trkpt lat="45.1318" lon="5.90872">
        <ele>2020</ele>
        <time>2013-09-26T17:41:55Z</time>
      </trkpt>
      <trkpt lat="45.1318" lon="5.90866">
        <ele>2020</ele>
        <time>2013-09-26T17:41:59Z</time>
      </trkpt>
      <trkpt lat="45.13173" lon="5.90856">
        <ele>2021</ele>
        <time>2013-09-26T17:42:11Z</time>
      </trkpt>
      <trkpt lat="45.13168" lon="5.90842">
        <ele>2025</ele>
        <time>2013-09-26T17:42:23Z</time>
      </trkpt>
      <trkpt lat="45.13169" lon="5.90825">
        <ele>2023</ele>
        <time>2013-09-26T17:42:39Z</time>
      </trkpt>
      <trkpt lat="45.1317" lon="5.90822">
        <ele>2022</ele>
        <time>2013-09-26T17:42:42Z</time>
      </trkpt>
      <trkpt lat="45.13168" lon="5.90808">
        <ele>2018</ele>
        <time>2013-09-26T17:42:53Z</time>
      </trkpt>
      <trkpt lat="45.13163" lon="5.90797">
        <ele>2043</ele>
        <time>2013-09-26T17:43:08Z</time>
      </trkpt>
      <trkpt lat="45.13165" lon="5.90793">
        <ele>2043</ele>
        <time>2013-09-26T17:43:13Z</time>
      </trkpt>
      <trkpt lat="45.1317" lon="5.90784">
        <ele>2015</ele>
        <time>2013-09-26T17:43:19Z</time>
      </trkpt>
      <trkpt lat="45.1317" lon="5.90777">
        <ele>2016</ele>
        <time>2013-09-26T17:43:25Z</time>
      </trkpt>
      <trkpt lat="45.13166" lon="5.90767">
        <ele>2037</ele>
        <time>2013-09-26T17:43:32Z</time>
      </trkpt>
      <trkpt lat="45.13163" lon="5.90761">
        <ele>2034</ele>
        <time>2013-09-26T17:43:38Z</time>
      </trkpt>
      <trkpt lat="45.13163" lon="5.90753">
        <ele>2028</ele>
        <time>2013-09-26T17:43:44Z</time>
      </trkpt>
      <trkpt lat="45.1316" lon="5.90737">
        <ele>2037</ele>
        <time>2013-09-26T17:43:57Z</time>
      </trkpt>
      <trkpt lat="45.13158" lon="5.90728">
        <ele>2043</ele>
        <time>2013-09-26T17:44:04Z</time>
      </trkpt>
      <trkpt lat="45.13158" lon="5.90723">
        <ele>2044</ele>
        <time>2013-09-26T17:44:07Z</time>
      </trkpt>
      <trkpt lat="45.13158" lon="5.90708">
        <ele>2046</ele>
        <time>2013-09-26T17:44:16Z</time>
      </trkpt>
      <trkpt lat="45.13153" lon="5.90689">
        <ele>2044</ele>
        <time>2013-09-26T17:44:29Z</time>
      </trkpt>
      <trkpt lat="45.13151" lon="5.9067">
        <ele>2038</ele>
        <time>2013-09-26T17:44:41Z</time>
      </trkpt>
      <trkpt lat="45.13147" lon="5.90663">
        <ele>2041</ele>
        <time>2013-09-26T17:44:50Z</time>
      </trkpt>
      <trkpt lat="45.13149" lon="5.90654">
        <ele>2041</ele>
        <time>2013-09-26T17:45:00Z</time>
      </trkpt>
      <trkpt lat="45.1315" lon="5.90647">
        <ele>2043</ele>
        <time>2013-09-26T17:45:06Z</time>
      </trkpt>
      <trkpt lat="45.13152" lon="5.90641">
        <ele>2044</ele>
        <time>2013-09-26T17:45:13Z</time>
      </trkpt>
      <trkpt lat="45.13152" lon="5.90626">
        <ele>2045</ele>
        <time>2013-09-26T17:45:29Z</time>
      </trkpt>
      <trkpt lat="45.1315" lon="5.90615">
        <ele>2045</ele>
        <time>2013-09-26T17:45:35Z</time>
      </trkpt>
      <trkpt lat="45.13146" lon="5.90604">
        <ele>2044</ele>
        <time>2013-09-26T17:45:44Z</time>
      </trkpt>
      <trkpt lat="45.13146" lon="5.90601">
        <ele>2044</ele>
        <time>2013-09-26T17:45:47Z</time>
      </trkpt>
      <trkpt lat="45.13144" lon="5.90597">
        <ele>2044</ele>
        <time>2013-09-26T17:45:53Z</time>
      </trkpt>
      <trkpt lat="45.13142" lon="5.90595">
        <ele>2044</ele>
        <time>2013-09-26T17:45:55Z</time>
      </trkpt>
      <trkpt lat="45.13144" lon="5.90583">
        <ele>2042</ele>
        <time>2013-09-26T17:46:03Z</time>
      </trkpt>
      <trkpt lat="45.13144" lon="5.9058">
        <ele>2036</ele>
        <time>2013-09-26T17:46:06Z</time>
      </trkpt>
      <trkpt lat="45.13143" lon="5.90574">
        <ele>2037</ele>
        <time>2013-09-26T17:46:13Z</time>
      </trkpt>
      <trkpt lat="45.13143" lon="5.90565">
        <ele>2038</ele>
        <time>2013-09-26T17:46:20Z</time>
      </trkpt>
      <trkpt lat="45.13142" lon="5.90559">
        <ele>2038</ele>
        <time>2013-09-26T17:46:23Z</time>
      </trkpt>
      <trkpt lat="45.13141" lon="5.90559">
        <ele>2039</ele>
        <time>2013-09-26T17:46:25Z</time>
      </trkpt>
      <trkpt lat="45.13137" lon="5.90555">
        <ele>2040</ele>
        <time>2013-09-26T17:46:30Z</time>
      </trkpt>
      <trkpt lat="45.13136" lon="5.9055">
        <ele>2040</ele>
        <time>2013-09-26T17:46:35Z</time>
      </trkpt>
      <trkpt lat="45.13136" lon="5.90549">
        <ele>2040</ele>
        <time>2013-09-26T17:46:36Z</time>
      </trkpt>
      <trkpt lat="45.1313" lon="5.90543">
        <ele>2042</ele>
        <time>2013-09-26T17:46:42Z</time>
      </trkpt>
      <trkpt lat="45.13126" lon="5.90526">
        <ele>2041</ele>
        <time>2013-09-26T17:46:54Z</time>
      </trkpt>
      <trkpt lat="45.13124" lon="5.90522">
        <ele>2042</ele>
        <time>2013-09-26T17:46:57Z</time>
      </trkpt>
      <trkpt lat="45.13124" lon="5.90515">
        <ele>2041</ele>
        <time>2013-09-26T17:47:01Z</time>
      </trkpt>
      <trkpt lat="45.13121" lon="5.90506">
        <ele>2042</ele>
        <time>2013-09-26T17:47:06Z</time>
      </trkpt>
      <trkpt lat="45.13113" lon="5.90481">
        <ele>2033</ele>
        <time>2013-09-26T17:47:17Z</time>
      </trkpt>
      <trkpt lat="45.13113" lon="5.90466">
        <ele>2031</ele>
        <time>2013-09-26T17:47:23Z</time>
      </trkpt>
      <trkpt lat="45.13111" lon="5.9045">
        <ele>2029</ele>
        <time>2013-09-26T17:47:35Z</time>
      </trkpt>
      <trkpt lat="45.13112" lon="5.90433">
        <ele>2029</ele>
        <time>2013-09-26T17:47:49Z</time>
      </trkpt>
      <trkpt lat="45.1311" lon="5.9043">
        <ele>2030</ele>
        <time>2013-09-26T17:47:52Z</time>
      </trkpt>
      <trkpt lat="45.13108" lon="5.90413">
        <ele>2017</ele>
        <time>2013-09-26T17:48:02Z</time>
      </trkpt>
      <trkpt lat="45.13107" lon="5.90403">
        <ele>2015</ele>
        <time>2013-09-26T17:48:06Z</time>
      </trkpt>
      <trkpt lat="45.13102" lon="5.90384">
        <ele>2010</ele>
        <time>2013-09-26T17:48:18Z</time>
      </trkpt>
      <trkpt lat="45.131" lon="5.90372">
        <ele>2007</ele>
        <time>2013-09-26T17:48:24Z</time>
      </trkpt>
      <trkpt lat="45.13095" lon="5.9036">
        <ele>2004</ele>
        <time>2013-09-26T17:48:29Z</time>
      </trkpt>
      <trkpt lat="45.13094" lon="5.90356">
        <ele>2004</ele>
        <time>2013-09-26T17:48:31Z</time>
      </trkpt>
      <trkpt lat="45.13093" lon="5.90354">
        <ele>2004</ele>
        <time>2013-09-26T17:48:32Z</time>
      </trkpt>
      <trkpt lat="45.1309" lon="5.90332">
        <ele>1994</ele>
        <time>2013-09-26T17:48:44Z</time>
      </trkpt>
      <trkpt lat="45.13088" lon="5.90325">
        <ele>1992</ele>
        <time>2013-09-26T17:48:48Z</time>
      </trkpt>
      <trkpt lat="45.13083" lon="5.9031">
        <ele>1997</ele>
        <time>2013-09-26T17:48:54Z</time>
      </trkpt>
      <trkpt lat="45.1308" lon="5.9031">
        <ele>1997</ele>
        <time>2013-09-26T17:48:56Z</time>
      </trkpt>
      <trkpt lat="45.13074" lon="5.903">
        <ele>1994</ele>
        <time>2013-09-26T17:49:06Z</time>
      </trkpt>
      <trkpt lat="45.13074" lon="5.90299">
        <ele>1994</ele>
        <time>2013-09-26T17:49:07Z</time>
      </trkpt>
      <trkpt lat="45.13062" lon="5.90284">
        <ele>1991</ele>
        <time>2013-09-26T17:49:29Z</time>
      </trkpt>
      <trkpt lat="45.13055" lon="5.90283">
        <ele>1992</ele>
        <time>2013-09-26T17:49:36Z</time>
      </trkpt>
      <trkpt lat="45.13041" lon="5.90267">
        <ele>1990</ele>
        <time>2013-09-26T17:49:48Z</time>
      </trkpt>
      <trkpt lat="45.13032" lon="5.90254">
        <ele>1990</ele>
        <time>2013-09-26T17:49:57Z</time>
      </trkpt>
      <trkpt lat="45.13031" lon="5.90252">
        <ele>1990</ele>
        <time>2013-09-26T17:49:59Z</time>
      </trkpt>
      <trkpt lat="45.13028" lon="5.90246">
        <ele>1970</ele>
        <time>2013-09-26T17:50:02Z</time>
      </trkpt>
      <trkpt lat="45.13022" lon="5.90234">
        <ele>1971</ele>
        <time>2013-09-26T17:50:12Z</time>
      </trkpt>
      <trkpt lat="45.13012" lon="5.90224">
        <ele>1970</ele>
        <time>2013-09-26T17:50:24Z</time>
      </trkpt>
      <trkpt lat="45.1301" lon="5.90219">
        <ele>1969</ele>
        <time>2013-09-26T17:50:26Z</time>
      </trkpt>
      <trkpt lat="45.13008" lon="5.90217">
        <ele>1969</ele>
        <time>2013-09-26T17:50:28Z</time>
      </trkpt>
      <trkpt lat="45.13007" lon="5.90215">
        <ele>1969</ele>
        <time>2013-09-26T17:50:29Z</time>
      </trkpt>
      <trkpt lat="45.13006" lon="5.9021">
        <ele>1968</ele>
        <time>2013-09-26T17:50:34Z</time>
      </trkpt>
      <trkpt lat="45.13002" lon="5.90205">
        <ele>1967</ele>
        <time>2013-09-26T17:50:37Z</time>
      </trkpt>
      <trkpt lat="45.13002" lon="5.90199">
        <ele>1966</ele>
        <time>2013-09-26T17:50:40Z</time>
      </trkpt>
      <trkpt lat="45.13" lon="5.90196">
        <ele>1966</ele>
        <time>2013-09-26T17:50:42Z</time>
      </trkpt>
      <trkpt lat="45.12997" lon="5.90187">
        <ele>1995</ele>
        <time>2013-09-26T17:50:47Z</time>
      </trkpt>
      <trkpt lat="45.12996" lon="5.90176">
        <ele>1984</ele>
        <time>2013-09-26T17:50:53Z</time>
      </trkpt>
      <trkpt lat="45.12999" lon="5.9016">
        <ele>1978</ele>
        <time>2013-09-26T17:51:02Z</time>
      </trkpt>
      <trkpt lat="45.12999" lon="5.90139">
        <ele>1991</ele>
        <time>2013-09-26T17:51:14Z</time>
      </trkpt>
      <trkpt lat="45.12999" lon="5.90136">
        <ele>1992</ele>
        <time>2013-09-26T17:51:16Z</time>
      </trkpt>
      <trkpt lat="45.12998" lon="5.90128">
        <ele>1993</ele>
        <time>2013-09-26T17:51:21Z</time>
      </trkpt>
      <trkpt lat="45.13002" lon="5.90114">
        <ele>1951</ele>
        <time>2013-09-26T17:51:26Z</time>
      </trkpt>
      <trkpt lat="45.13004" lon="5.90106">
        <ele>1952</ele>
        <time>2013-09-26T17:51:30Z</time>
      </trkpt>
      <trkpt lat="45.13004" lon="5.90088">
        <ele>1956</ele>
        <time>2013-09-26T17:51:39Z</time>
      </trkpt>
      <trkpt lat="45.13004" lon="5.90075">
        <ele>1952</ele>
        <time>2013-09-26T17:51:45Z</time>
      </trkpt>
      <trkpt lat="45.13004" lon="5.90072">
        <ele>1951</ele>
        <time>2013-09-26T17:51:46Z</time>
      </trkpt>
      <trkpt lat="45.13008" lon="5.90057">
        <ele>1946</ele>
        <time>2013-09-26T17:51:53Z</time>
      </trkpt>
      <trkpt lat="45.13009" lon="5.90043">
        <ele>1944</ele>
        <time>2013-09-26T17:52:00Z</time>
      </trkpt>
      <trkpt lat="45.13009" lon="5.90015">
        <ele>1946</ele>
        <time>2013-09-26T17:52:16Z</time>
      </trkpt>
      <trkpt lat="45.13005" lon="5.89986">
        <ele>1945</ele>
        <time>2013-09-26T17:52:30Z</time>
      </trkpt>
      <trkpt lat="45.13002" lon="5.89961">
        <ele>1940</ele>
        <time>2013-09-26T17:52:44Z</time>
      </trkpt>
      <trkpt lat="45.13" lon="5.89947">
        <ele>1940</ele>
        <time>2013-09-26T17:52:51Z</time>
      </trkpt>
      <trkpt lat="45.12991" lon="5.89916">
        <ele>1950</ele>
        <time>2013-09-26T17:53:07Z</time>
      </trkpt>
      <trkpt lat="45.12979" lon="5.89895">
        <ele>1954</ele>
        <time>2013-09-26T17:53:19Z</time>
      </trkpt>
      <trkpt lat="45.1296" lon="5.89873">
        <ele>1956</ele>
        <time>2013-09-26T17:53:34Z</time>
      </trkpt>
      <trkpt lat="45.12947" lon="5.89844">
        <ele>1956</ele>
        <time>2013-09-26T17:53:51Z</time>
      </trkpt>
      <trkpt lat="45.12939" lon="5.89821">
        <ele>1947</ele>
        <time>2013-09-26T17:54:03Z</time>
      </trkpt>
      <trkpt lat="45.1293" lon="5.8979">
        <ele>1945</ele>
        <time>2013-09-26T17:54:19Z</time>
      </trkpt>
      <trkpt lat="45.12928" lon="5.89785">
        <ele>1945</ele>
        <time>2013-09-26T17:54:22Z</time>
      </trkpt>
      <trkpt lat="45.12915" lon="5.89768">
        <ele>1963</ele>
        <time>2013-09-26T17:54:34Z</time>
      </trkpt>
      <trkpt lat="45.12897" lon="5.89739">
        <ele>1956</ele>
        <time>2013-09-26T17:54:52Z</time>
      </trkpt>
      <trkpt lat="45.12882" lon="5.89713">
        <ele>1956</ele>
        <time>2013-09-26T17:55:07Z</time>
      </trkpt>
      <trkpt lat="45.12869" lon="5.89684">
        <ele>1955</ele>
        <time>2013-09-26T17:55:23Z</time>
      </trkpt>
      <trkpt lat="45.12857" lon="5.89671">
        <ele>1955</ele>
        <time>2013-09-26T17:55:30Z</time>
      </trkpt>
      <trkpt lat="45.12848" lon="5.89657">
        <ele>1947</ele>
        <time>2013-09-26T17:55:36Z</time>
      </trkpt>
      <trkpt lat="45.12844" lon="5.89643">
        <ele>1944</ele>
        <time>2013-09-26T17:55:41Z</time>
      </trkpt>
      <trkpt lat="45.12842" lon="5.89632">
        <ele>1942</ele>
        <time>2013-09-26T17:55:45Z</time>
      </trkpt>
      <trkpt lat="45.12837" lon="5.89607">
        <ele>1939</ele>
        <time>2013-09-26T17:55:57Z</time>
      </trkpt>
      <trkpt lat="45.12828" lon="5.89584">
        <ele>1940</ele>
        <time>2013-09-26T17:56:10Z</time>
      </trkpt>
      <trkpt lat="45.12821" lon="5.89557">
        <ele>1939</ele>
        <time>2013-09-26T17:56:24Z</time>
      </trkpt>
      <trkpt lat="45.12808" lon="5.89543">
        <ele>1939</ele>
        <time>2013-09-26T17:56:32Z</time>
      </trkpt>
      <trkpt lat="45.12802" lon="5.89534">
        <ele>1939</ele>
        <time>2013-09-26T17:56:37Z</time>
      </trkpt>
      <trkpt lat="45.12793" lon="5.89505">
        <ele>1938</ele>
        <time>2013-09-26T17:56:52Z</time>
      </trkpt>
      <trkpt lat="45.1279" lon="5.89469">
        <ele>1928</ele>
        <time>2013-09-26T17:57:08Z</time>
      </trkpt>
      <trkpt lat="45.12787" lon="5.89463">
        <ele>1928</ele>
        <time>2013-09-26T17:57:11Z</time>
      </trkpt>
      <trkpt lat="45.1276" lon="5.89446">
        <ele>1929</ele>
        <time>2013-09-26T17:57:30Z</time>
      </trkpt>
      <trkpt lat="45.12743" lon="5.89431">
        <ele>1939</ele>
        <time>2013-09-26T17:57:45Z</time>
      </trkpt>
      <trkpt lat="45.12733" lon="5.89406">
        <ele>1932</ele>
        <time>2013-09-26T17:57:59Z</time>
      </trkpt>
      <trkpt lat="45.12719" lon="5.89373">
        <ele>1931</ele>
        <time>2013-09-26T17:58:15Z</time>
      </trkpt>
      <trkpt lat="45.12701" lon="5.89344">
        <ele>1930</ele>
        <time>2013-09-26T17:58:32Z</time>
      </trkpt>
      <trkpt lat="45.12698" lon="5.89331">
        <ele>1919</ele>
        <time>2013-09-26T17:58:38Z</time>
      </trkpt>
      <trkpt lat="45.12685" lon="5.89301">
        <ele>1917</ele>
        <time>2013-09-26T17:58:55Z</time>
      </trkpt>
      <trkpt lat="45.12681" lon="5.8926">
        <ele>1912</ele>
        <time>2013-09-26T17:59:13Z</time>
      </trkpt>
      <trkpt lat="45.1268" lon="5.89225">
        <ele>1900</ele>
        <time>2013-09-26T17:59:29Z</time>
      </trkpt>
      <trkpt lat="45.12683" lon="5.89206">
        <ele>1897</ele>
        <time>2013-09-26T17:59:35Z</time>
      </trkpt>
      <trkpt lat="45.12681" lon="5.89192">
        <ele>1896</ele>
        <time>2013-09-26T17:59:40Z</time>
      </trkpt>
      <trkpt lat="45.1268" lon="5.89188">
        <ele>1896</ele>
        <time>2013-09-26T17:59:42Z</time>
      </trkpt>
      <trkpt lat="45.12678" lon="5.8917">
        <ele>1896</ele>
        <time>2013-09-26T17:59:52Z</time>
      </trkpt>
      <trkpt lat="45.12681" lon="5.89168">
        <ele>1895</ele>
        <time>2013-09-26T18:00:18Z</time>
      </trkpt>
      <trkpt lat="45.12685" lon="5.89166">
        <ele>1886</ele>
        <time>2013-09-26T18:00:52Z</time>
      </trkpt>
      <trkpt lat="45.12685" lon="5.89164">
        <ele>1885</ele>
        <time>2013-09-26T18:00:55Z</time>
      </trkpt>
      <trkpt lat="45.12681" lon="5.89153">
        <ele>1885</ele>
        <time>2013-09-26T18:01:00Z</time>
      </trkpt>
      <trkpt lat="45.12679" lon="5.89145">
        <ele>1883</ele>
        <time>2013-09-26T18:01:03Z</time>
      </trkpt>
      <trkpt lat="45.1268" lon="5.8913">
        <ele>1879</ele>
        <time>2013-09-26T18:01:10Z</time>
      </trkpt>
      <trkpt lat="45.1268" lon="5.89122">
        <ele>1878</ele>
        <time>2013-09-26T18:01:14Z</time>
      </trkpt>
      <trkpt lat="45.12685" lon="5.8912">
        <ele>1877</ele>
        <time>2013-09-26T18:01:19Z</time>
      </trkpt>
      <trkpt lat="45.12688" lon="5.89118">
        <ele>1876</ele>
        <time>2013-09-26T18:01:22Z</time>
      </trkpt>
      <trkpt lat="45.12686" lon="5.8911">
        <ele>1876</ele>
        <time>2013-09-26T18:01:27Z</time>
      </trkpt>
      <trkpt lat="45.12685" lon="5.89109">
        <ele>1876</ele>
        <time>2013-09-26T18:01:28Z</time>
      </trkpt>
      <trkpt lat="45.12684" lon="5.89105">
        <ele>1876</ele>
        <time>2013-09-26T18:01:31Z</time>
      </trkpt>
      <trkpt lat="45.12685" lon="5.89103">
        <ele>1875</ele>
        <time>2013-09-26T18:01:33Z</time>
      </trkpt>
      <trkpt lat="45.12681" lon="5.8909">
        <ele>1875</ele>
        <time>2013-09-26T18:01:39Z</time>
      </trkpt>
      <trkpt lat="45.12677" lon="5.89077">
        <ele>1869</ele>
        <time>2013-09-26T18:01:44Z</time>
      </trkpt>
      <trkpt lat="45.12671" lon="5.89055">
        <ele>1864</ele>
        <time>2013-09-26T18:01:55Z</time>
      </trkpt>
      <trkpt lat="45.12671" lon="5.89052">
        <ele>1864</ele>
        <time>2013-09-26T18:01:56Z</time>
      </trkpt>
      <trkpt lat="45.12679" lon="5.89037">
        <ele>1861</ele>
        <time>2013-09-26T18:02:03Z</time>
      </trkpt>
      <trkpt lat="45.12686" lon="5.8902">
        <ele>1859</ele>
        <time>2013-09-26T18:02:11Z</time>
      </trkpt>
      <trkpt lat="45.12688" lon="5.89014">
        <ele>1859</ele>
        <time>2013-09-26T18:02:14Z</time>
      </trkpt>
      <trkpt lat="45.12692" lon="5.89003">
        <ele>1858</ele>
        <time>2013-09-26T18:02:20Z</time>
      </trkpt>
      <trkpt lat="45.12709" lon="5.88999">
        <ele>1847</ele>
        <time>2013-09-26T18:02:29Z</time>
      </trkpt>
      <trkpt lat="45.12719" lon="5.88982">
        <ele>1845</ele>
        <time>2013-09-26T18:02:35Z</time>
      </trkpt>
      <trkpt lat="45.12711" lon="5.88972">
        <ele>1845</ele>
        <time>2013-09-26T18:02:40Z</time>
      </trkpt>
      <trkpt lat="45.12711" lon="5.88968">
        <ele>1845</ele>
        <time>2013-09-26T18:02:41Z</time>
      </trkpt>
      <trkpt lat="45.12711" lon="5.8896">
        <ele>1844</ele>
        <time>2013-09-26T18:02:43Z</time>
      </trkpt>
      <trkpt lat="45.1272" lon="5.88935">
        <ele>1840</ele>
        <time>2013-09-26T18:02:55Z</time>
      </trkpt>
      <trkpt lat="45.12727" lon="5.88926">
        <ele>1839</ele>
        <time>2013-09-26T18:02:59Z</time>
      </trkpt>
      <trkpt lat="45.1273" lon="5.88912">
        <ele>1830</ele>
        <time>2013-09-26T18:03:04Z</time>
      </trkpt>
      <trkpt lat="45.12736" lon="5.88899">
        <ele>1830</ele>
        <time>2013-09-26T18:03:08Z</time>
      </trkpt>
      <trkpt lat="45.12744" lon="5.88885">
        <ele>1829</ele>
        <time>2013-09-26T18:03:13Z</time>
      </trkpt>
      <trkpt lat="45.12755" lon="5.88877">
        <ele>1825</ele>
        <time>2013-09-26T18:03:23Z</time>
      </trkpt>
      <trkpt lat="45.12758" lon="5.88877">
        <ele>1825</ele>
        <time>2013-09-26T18:03:25Z</time>
      </trkpt>
      <trkpt lat="45.12769" lon="5.88862">
        <ele>1825</ele>
        <time>2013-09-26T18:03:36Z</time>
      </trkpt>
      <trkpt lat="45.12763" lon="5.8883">
        <ele>1828</ele>
        <time>2013-09-26T18:03:52Z</time>
      </trkpt>
      <trkpt lat="45.12754" lon="5.88805">
        <ele>1830</ele>
        <time>2013-09-26T18:04:04Z</time>
      </trkpt>
      <trkpt lat="45.12745" lon="5.88772">
        <ele>1824</ele>
        <time>2013-09-26T18:04:20Z</time>
      </trkpt>
      <trkpt lat="45.12735" lon="5.88734">
        <ele>1822</ele>
        <time>2013-09-26T18:04:39Z</time>
      </trkpt>
      <trkpt lat="45.12729" lon="5.88706">
        <ele>1819</ele>
        <time>2013-09-26T18:04:53Z</time>
      </trkpt>
      <trkpt lat="45.12729" lon="5.88704">
        <ele>1819</ele>
        <time>2013-09-26T18:04:54Z</time>
      </trkpt>
      <trkpt lat="45.12722" lon="5.88671">
        <ele>1819</ele>
        <time>2013-09-26T18:05:10Z</time>
      </trkpt>
      <trkpt lat="45.1272" lon="5.88631">
        <ele>1814</ele>
        <time>2013-09-26T18:05:29Z</time>
      </trkpt>
      <trkpt lat="45.12727" lon="5.886">
        <ele>1814</ele>
        <time>2013-09-26T18:05:44Z</time>
      </trkpt>
      <trkpt lat="45.12733" lon="5.88574">
        <ele>1810</ele>
        <time>2013-09-26T18:05:55Z</time>
      </trkpt>
      <trkpt lat="45.12743" lon="5.8855">
        <ele>1807</ele>
        <time>2013-09-26T18:06:08Z</time>
      </trkpt>
      <trkpt lat="45.12751" lon="5.88525">
        <ele>1811</ele>
        <time>2013-09-26T18:06:20Z</time>
      </trkpt>
      <trkpt lat="45.12749" lon="5.88499">
        <ele>1803</ele>
        <time>2013-09-26T18:06:30Z</time>
      </trkpt>
      <trkpt lat="45.12752" lon="5.88482">
        <ele>1799</ele>
        <time>2013-09-26T18:06:35Z</time>
      </trkpt>
      <trkpt lat="45.12754" lon="5.88462">
        <ele>1796</ele>
        <time>2013-09-26T18:06:41Z</time>
      </trkpt>
      <trkpt lat="45.12759" lon="5.8845">
        <ele>1794</ele>
        <time>2013-09-26T18:06:45Z</time>
      </trkpt>
      <trkpt lat="45.12764" lon="5.88442">
        <ele>1793</ele>
        <time>2013-09-26T18:06:48Z</time>
      </trkpt>
      <trkpt lat="45.1277" lon="5.88426">
        <ele>1791</ele>
        <time>2013-09-26T18:06:54Z</time>
      </trkpt>
      <trkpt lat="45.12774" lon="5.8841">
        <ele>1780</ele>
        <time>2013-09-26T18:07:03Z</time>
      </trkpt>
      <trkpt lat="45.12775" lon="5.88393">
        <ele>1779</ele>
        <time>2013-09-26T18:07:08Z</time>
      </trkpt>
      <trkpt lat="45.12776" lon="5.88384">
        <ele>1778</ele>
        <time>2013-09-26T18:07:11Z</time>
      </trkpt>
      <trkpt lat="45.12776" lon="5.8837">
        <ele>1776</ele>
        <time>2013-09-26T18:07:16Z</time>
      </trkpt>
      <trkpt lat="45.12777" lon="5.88353">
        <ele>1774</ele>
        <time>2013-09-26T18:07:21Z</time>
      </trkpt>
      <trkpt lat="45.12778" lon="5.88336">
        <ele>1773</ele>
        <time>2013-09-26T18:07:26Z</time>
      </trkpt>
      <trkpt lat="45.12781" lon="5.8832">
        <ele>1763</ele>
        <time>2013-09-26T18:07:31Z</time>
      </trkpt>
      <trkpt lat="45.12787" lon="5.88308">
        <ele>1761</ele>
        <time>2013-09-26T18:07:35Z</time>
      </trkpt>
      <trkpt lat="45.12792" lon="5.88291">
        <ele>1760</ele>
        <time>2013-09-26T18:07:41Z</time>
      </trkpt>
      <trkpt lat="45.12792" lon="5.88286">
        <ele>1759</ele>
        <time>2013-09-26T18:07:43Z</time>
      </trkpt>
      <trkpt lat="45.12791" lon="5.88282">
        <ele>1759</ele>
        <time>2013-09-26T18:07:45Z</time>
      </trkpt>
      <trkpt lat="45.12793" lon="5.88274">
        <ele>1758</ele>
        <time>2013-09-26T18:07:48Z</time>
      </trkpt>
      <trkpt lat="45.12797" lon="5.88265">
        <ele>1758</ele>
        <time>2013-09-26T18:07:51Z</time>
      </trkpt>
      <trkpt lat="45.12793" lon="5.88245">
        <ele>1746</ele>
        <time>2013-09-26T18:07:58Z</time>
      </trkpt>
      <trkpt lat="45.12789" lon="5.8824">
        <ele>1746</ele>
        <time>2013-09-26T18:08:01Z</time>
      </trkpt>
      <trkpt lat="45.12789" lon="5.88221">
        <ele>1744</ele>
        <time>2013-09-26T18:08:08Z</time>
      </trkpt>
      <trkpt lat="45.12789" lon="5.88219">
        <ele>1744</ele>
        <time>2013-09-26T18:08:09Z</time>
      </trkpt>
      <trkpt lat="45.12786" lon="5.88211">
        <ele>1743</ele>
        <time>2013-09-26T18:08:14Z</time>
      </trkpt>
      <trkpt lat="45.12784" lon="5.88191">
        <ele>1740</ele>
        <time>2013-09-26T18:08:20Z</time>
      </trkpt>
      <trkpt lat="45.12776" lon="5.88176">
        <ele>1737</ele>
        <time>2013-09-26T18:08:25Z</time>
      </trkpt>
      <trkpt lat="45.12762" lon="5.88163">
        <ele>1726</ele>
        <time>2013-09-26T18:08:32Z</time>
      </trkpt>
      <trkpt lat="45.12754" lon="5.88153">
        <ele>1726</ele>
        <time>2013-09-26T18:08:37Z</time>
      </trkpt>
      <trkpt lat="45.12747" lon="5.88141">
        <ele>1717</ele>
        <time>2013-09-26T18:08:42Z</time>
      </trkpt>
      <trkpt lat="45.12734" lon="5.88129">
        <ele>1716</ele>
        <time>2013-09-26T18:08:48Z</time>
      </trkpt>
      <trkpt lat="45.12726" lon="5.88118">
        <ele>1714</ele>
        <time>2013-09-26T18:08:52Z</time>
      </trkpt>
      <trkpt lat="45.12718" lon="5.88105">
        <ele>1713</ele>
        <time>2013-09-26T18:08:56Z</time>
      </trkpt>
      <trkpt lat="45.1271" lon="5.88096">
        <ele>1711</ele>
        <time>2013-09-26T18:09:00Z</time>
      </trkpt>
      <trkpt lat="45.12701" lon="5.88086">
        <ele>1709</ele>
        <time>2013-09-26T18:09:04Z</time>
      </trkpt>
      <trkpt lat="45.12691" lon="5.88076">
        <ele>1700</ele>
        <time>2013-09-26T18:09:08Z</time>
      </trkpt>
      <trkpt lat="45.12683" lon="5.88066">
        <ele>1699</ele>
        <time>2013-09-26T18:09:12Z</time>
      </trkpt>
      <trkpt lat="45.12677" lon="5.88059">
        <ele>1699</ele>
        <time>2013-09-26T18:09:15Z</time>
      </trkpt>
      <trkpt lat="45.12671" lon="5.88044">
        <ele>1698</ele>
        <time>2013-09-26T18:09:26Z</time>
      </trkpt>
      <trkpt lat="45.1267" lon="5.88034">
        <ele>1697</ele>
        <time>2013-09-26T18:09:38Z</time>
      </trkpt>
      <trkpt lat="45.12657" lon="5.88007">
        <ele>1686</ele>
        <time>2013-09-26T18:09:51Z</time>
      </trkpt>
      <trkpt lat="45.12644" lon="5.87983">
        <ele>1683</ele>
        <time>2013-09-26T18:10:04Z</time>
      </trkpt>
      <trkpt lat="45.12632" lon="5.87965">
        <ele>1681</ele>
        <time>2013-09-26T18:10:11Z</time>
      </trkpt>
      <trkpt lat="45.12628" lon="5.8796">
        <ele>1681</ele>
        <time>2013-09-26T18:10:13Z</time>
      </trkpt>
      <trkpt lat="45.12623" lon="5.87952">
        <ele>1681</ele>
        <time>2013-09-26T18:10:18Z</time>
      </trkpt>
      <trkpt lat="45.12615" lon="5.87926">
        <ele>1679</ele>
        <time>2013-09-26T18:10:33Z</time>
      </trkpt>
      <trkpt lat="45.12613" lon="5.87921">
        <ele>1679</ele>
        <time>2013-09-26T18:10:36Z</time>
      </trkpt>
      <trkpt lat="45.12606" lon="5.87919">
        <ele>1678</ele>
        <time>2013-09-26T18:10:43Z</time>
      </trkpt>
      <trkpt lat="45.12599" lon="5.87915">
        <ele>1676</ele>
        <time>2013-09-26T18:10:48Z</time>
      </trkpt>
      <trkpt lat="45.12589" lon="5.87912">
        <ele>1675</ele>
        <time>2013-09-26T18:10:54Z</time>
      </trkpt>
      <trkpt lat="45.12571" lon="5.87909">
        <ele>1670</ele>
        <time>2013-09-26T18:11:10Z</time>
      </trkpt>
      <trkpt lat="45.12557" lon="5.87907">
        <ele>1668</ele>
        <time>2013-09-26T18:11:24Z</time>
      </trkpt>
    </trkseg>
  </trk>
</gpx>